M I D A S
Marine Information and Data Acquisition System
Tripno 468 of the Zeeleeuw from 2003-04-24 04:30:00 to 2003-04-24 21:00:00
Back to CruiseResearch ActivitiesStationsMapUnderway DataData graphs

EquipmentUnitsComment
TimeDGPSUTC
LatitudeDGPSDM.mWGS84
LongitudeDGPSDM.mWGS84
TemperatureSBE03/SBE38deg celciusITS90
ConductivitySBE21S/mITS90
SalinitySBE21 Practical Salinity Units
ChlorophylAChelsea fluorimeterg/lCalibrated in Aceton
Missing or incorrect values are displayed as -999
Sea surface data collected by the RV Zeeleeuw from 2003-04-24 04:30:00 to 2003-04-24 21:00:00
                                                                                    Next 1000 lines
Time Latitude Longitude Temperature Conductivity Salinity ChlorophylA
2003-04-24 04:30:07 51°13.6 2°56.1 17.951384 0.644765 3.868445 -0.781249
2003-04-24 04:30:11 51°13.6 2°56.1 17.952218 0.644765 3.868445 -0.781249
2003-04-24 04:30:17 51°13.6 2°56.1 17.952676 0.644765 3.868445 -0.781249
2003-04-24 04:30:23 51°13.6 2°56.1 17.952676 0.644765 3.868445 -0.781249
2003-04-24 04:30:27 51°13.6 2°56.1 17.952759 0.644765 3.868445 -0.781249
2003-04-24 04:30:31 51°13.6 2°56.1 17.953218 0.644765 3.868383 -0.814958
2003-04-24 04:30:37 51°13.6 2°56.1 17.953051 0.644765 3.868445 -0.814958
2003-04-24 04:30:41 51°13.6 2°56.1 17.953176 0.644765 3.868445 -0.74754
2003-04-24 04:30:47 51°13.6 2°56.1 17.953468 0.644765 3.868445 -0.781249
2003-04-24 04:30:51 51°13.6 2°56.1 17.953468 0.644765 3.868445 -0.781249
2003-04-24 04:30:57 51°13.6 2°56.1 17.953634 0.644765 3.868383 -0.814958
2003-04-24 04:31:01 51°13.6 2°56.1 17.95426 0.644765 3.868383 -0.781249
2003-04-24 04:31:07 51°13.6 2°56.1 17.954593 0.644765 3.868383 -0.781249
2003-04-24 04:31:11 51°13.6 2°56.1 17.955385 0.644765 3.868383 -0.814958
2003-04-24 04:31:17 51°13.6 2°56.1 17.955968 0.644765 3.868383 -0.814958
2003-04-24 04:31:21 51°13.6 2°56.11 17.955968 0.644765 3.868383 -0.814958
2003-04-24 04:31:27 51°13.6 2°56.11 17.95651 0.644765 3.868383 -0.781249
2003-04-24 04:31:31 51°13.6 2°56.11 17.956635 0.644765 3.868383 -0.814958
2003-04-24 04:31:37 51°13.6 2°56.11 17.956843 0.644765 3.868383 -0.781249
2003-04-24 04:31:41 51°13.6 2°56.11 17.957385 0.644765 3.868383 -0.781249
2003-04-24 04:31:47 51°13.6 2°56.11 17.957676 0.644765 3.868383 -0.814958
2003-04-24 04:31:51 51°13.6 2°56.11 17.957676 0.644765 3.868383 -0.814958
2003-04-24 04:31:57 51°13.6 2°56.1 17.958051 0.644765 3.868383 -0.814958
2003-04-24 04:32:01 51°13.6 2°56.1 17.95851 0.644765 3.868383 -0.781249
2003-04-24 04:32:07 51°13.6 2°56.1 17.958676 0.644765 3.868383 -0.781249
2003-04-24 04:32:11 51°13.6 2°56.1 17.958885 0.644765 3.86832 -0.814958
2003-04-24 04:32:17 51°13.6 2°56.1 17.958843 0.64487 3.86899 -0.814958
2003-04-24 04:32:21 51°13.6 2°56.1 17.958843 0.64487 3.86899 -0.814958
2003-04-24 04:32:27 51°13.6 2°56.1 17.958885 0.644765 3.868383 -0.781249
2003-04-24 04:32:31 51°13.6 2°56.1 17.95926 0.64487 3.869053 -0.814958
2003-04-24 04:32:37 51°13.6 2°56.1 17.959343 0.64487 3.869053 -0.781249
2003-04-24 04:32:41 51°13.6 2°56.1 17.960093 0.64487 3.869053 -0.781249
2003-04-24 04:32:47 51°13.6 2°56.1 17.960385 0.64487 3.869053 -0.814958
2003-04-24 04:32:51 51°13.6 2°56.1 17.960385 0.64487 3.869053 -0.814958
2003-04-24 04:32:57 51°13.6 2°56.1 17.960676 0.64487 3.869053 -0.814958
2003-04-24 04:33:01 51°13.6 2°56.1 17.961218 0.64487 3.869053 -0.781249
2003-04-24 04:33:07 51°13.6 2°56.11 17.961593 0.64487 3.869115 -0.814958
2003-04-24 04:33:11 51°13.6 2°56.11 17.961884 0.64487 3.869053 -0.74754
2003-04-24 04:33:17 51°13.6 2°56.1 17.962426 0.64487 3.869115 -0.781249
2003-04-24 04:33:21 51°13.6 2°56.11 17.962426 0.64487 3.869115 -0.781249
2003-04-24 04:33:27 51°13.6 2°56.1 17.962509 0.64487 3.869115 -0.814958
2003-04-24 04:33:31 51°13.6 2°56.1 17.963259 0.64487 3.869053 -0.781249
2003-04-24 04:33:37 51°13.6 2°56.1 17.963384 0.64487 3.869115 -0.781249
2003-04-24 04:33:41 51°13.6 2°56.1 17.963843 0.64487 3.869178 -0.814958
2003-04-24 04:33:47 51°13.6 2°56.1 17.963926 0.64487 3.869115 -0.781249
2003-04-24 04:33:51 51°13.6 2°56.1 17.963926 0.64487 3.869115 -0.781249
2003-04-24 04:33:57 51°13.6 2°56.1 17.964301 0.64487 3.869115 -0.814958
2003-04-24 04:34:01 51°13.6 2°56.1 17.964759 0.644974 3.869785 -0.781249
2003-04-24 04:34:07 51°13.6 2°56.1 17.964967 0.644974 3.869785 -0.814958
2003-04-24 04:34:11 51°13.6 2°56.1 17.965551 0.644974 3.869785 -0.814958
2003-04-24 04:34:17 51°13.6 2°56.11 17.965801 0.644974 3.869848 -0.781249
2003-04-24 04:34:21 51°13.6 2°56.1 17.965801 0.644974 3.869848 -0.781249
2003-04-24 04:34:27 51°13.6 2°56.11 17.966259 0.644974 3.869848 -0.781249
2003-04-24 04:34:33 51°13.6 2°56.11 17.966717 0.644974 3.869785 -0.814958
2003-04-24 04:34:37 51°13.6 2°56.11 17.967092 0.644974 3.869848 -0.781249
2003-04-24 04:34:41 51°13.6 2°56.1 17.967509 0.644974 3.869848 -0.781249
2003-04-24 04:34:47 51°13.6 2°56.1 17.96805 0.644974 3.869848 -0.781249
2003-04-24 04:34:51 51°13.6 2°56.1 17.96805 0.644974 3.869848 -0.781249
2003-04-24 04:34:57 51°13.6 2°56.1 17.968467 0.644974 3.869848 -0.781249
2003-04-24 04:35:01 51°13.6 2°56.1 17.969009 0.644974 3.869848 -0.781249
2003-04-24 04:35:07 51°13.6 2°56.1 17.9693 0.644974 3.869973 -0.814958
2003-04-24 04:35:11 51°13.6 2°56.1 17.969633 0.644974 3.86991 -0.814958
2003-04-24 04:35:17 51°13.6 2°56.1 17.970008 0.645079 3.870581 -0.781249
2003-04-24 04:35:21 51°13.6 2°56.1 17.970008 0.645079 3.870581 -0.781249
2003-04-24 04:35:27 51°13.6 2°56.1 17.970758 0.644974 3.86991 -0.814958
2003-04-24 04:35:31 51°13.6 2°56.1 17.97105 0.645079 3.870643 -0.814958
2003-04-24 04:35:37 51°13.6 2°56.1 17.971591 0.644974 3.869973 -0.781249
2003-04-24 04:35:41 51°13.6 2°56.1 17.972175 0.645079 3.870706 -0.814958
2003-04-24 04:35:47 51°13.6 2°56.1 17.972841 0.645079 3.870643 -0.814958
2003-04-24 04:35:51 51°13.6 2°56.1 17.972841 0.645079 3.870643 -0.814958
2003-04-24 04:35:57 51°13.6 2°56.1 17.973008 0.645079 3.870643 -0.781249
2003-04-24 04:36:01 51°13.6 2°56.1 17.973299 0.645079 3.870643 -0.814958
2003-04-24 04:36:07 51°13.6 2°56.1 17.973841 0.645079 3.870706 -0.814958
2003-04-24 04:36:13 51°13.6 2°56.1 17.973883 0.645079 3.870706 -0.781249
2003-04-24 04:36:17 51°13.6 2°56.1 17.974133 0.645079 3.870831 -0.814958
2003-04-24 04:36:21 51°13.6 2°56.1 17.974133 0.645079 3.870831 -0.814958
2003-04-24 04:36:27 51°13.6 2°56.1 17.974632 0.645079 3.870831 -0.814958
2003-04-24 04:36:31 51°13.6 2°56.1 17.974966 0.645183 3.871438 -0.781249
2003-04-24 04:36:37 51°13.6 2°56.1 17.975466 0.645079 3.870768 -0.781249
2003-04-24 04:36:41 51°13.6 2°56.1 17.976007 0.645183 3.871501 -0.814958
2003-04-24 04:36:47 51°13.6 2°56.1 17.976299 0.645079 3.870893 -0.781249
2003-04-24 04:36:51 51°13.6 2°56.1 17.976299 0.645079 3.870893 -0.781249
2003-04-24 04:36:57 51°13.6 2°56.1 17.97659 0.645183 3.871501 -0.781249
2003-04-24 04:37:01 51°13.6 2°56.1 17.976757 0.645183 3.871563 -0.814958
2003-04-24 04:37:07 51°13.6 2°56.1 17.975757 0.645183 3.871626 -0.781249
2003-04-24 04:37:11 51°13.6 2°56.1 17.975757 0.645183 3.871626 -0.781249
2003-04-24 04:37:17 51°13.6 2°56.1 17.976382 0.645183 3.871626 -0.781249
2003-04-24 04:37:21 51°13.6 2°56.11 17.976382 0.645183 3.871626 -0.781249
2003-04-24 04:37:27 51°13.6 2°56.11 17.977048 0.645183 3.871626 -0.781249
2003-04-24 04:37:31 51°13.6 2°56.11 17.977882 0.645183 3.871626 -0.781249
2003-04-24 04:37:37 51°13.6 2°56.11 17.978381 0.645183 3.871626 -0.814958
2003-04-24 04:37:41 51°13.6 2°56.11 17.978923 0.645183 3.871751 -0.781249
2003-04-24 04:37:47 51°13.6 2°56.1 17.979464 0.645183 3.871751 -0.781249
2003-04-24 04:37:51 51°13.6 2°56.1 17.979464 0.645183 3.871751 -0.781249
2003-04-24 04:37:57 51°13.6 2°56.1 17.979964 0.645183 3.871751 -0.781249
2003-04-24 04:38:01 51°13.6 2°56.1 17.980589 0.645288 3.872421 -0.814958
2003-04-24 04:38:07 51°13.6 2°56.1 17.981255 0.645288 3.872484 -0.781249
2003-04-24 04:38:11 51°13.6 2°56.11 17.98163 0.645288 3.872547 -0.781249
2003-04-24 04:38:17 51°13.6 2°56.11 17.98138 0.645288 3.872547 -0.781249
2003-04-24 04:38:21 51°13.6 2°56.1 17.98138 0.645288 3.872547 -0.781249
2003-04-24 04:38:27 51°13.6 2°56.1 17.981922 0.645183 3.871939 -0.814958
2003-04-24 04:38:31 51°13.6 2°56.1 17.982297 0.645288 3.872609 -0.781249
2003-04-24 04:38:37 51°13.6 2°56.1 17.98213 0.645288 3.872672 -0.781249
2003-04-24 04:38:41 51°13.6 2°56.1 17.98288 0.645288 3.872672 -0.781249
2003-04-24 04:38:47 51°13.6 2°56.1 17.983338 0.645288 3.872734 -0.781249
2003-04-24 04:38:51 51°13.6 2°56.1 17.983338 0.645288 3.872734 -0.781249
2003-04-24 04:38:57 51°13.6 2°56.1 17.98363 0.645288 3.872734 -0.781249
2003-04-24 04:39:01 51°13.6 2°56.1 17.984254 0.645288 3.872734 -0.814958
2003-04-24 04:39:07 51°13.6 2°56.1 17.985087 0.645288 3.872797 -0.814958
2003-04-24 04:39:11 51°13.6 2°56.1 17.98567 0.645288 3.872797 -0.781249
2003-04-24 04:39:17 51°13.6 2°56.1 17.986212 0.645392 3.87353 -0.781249
2003-04-24 04:39:21 51°13.6 2°56.1 17.986212 0.645392 3.87353 -0.781249
2003-04-24 04:39:27 51°13.6 2°56.1 17.986628 0.645392 3.87353 -0.814958
2003-04-24 04:39:31 51°13.6 2°56.1 17.987003 0.645392 3.873592 -0.781249
2003-04-24 04:39:37 51°13.6 2°56.1 17.987378 0.645392 3.873592 -0.814958
2003-04-24 04:39:41 51°13.6 2°56.1 17.988003 0.645392 3.873655 -0.781249
2003-04-24 04:39:47 51°13.6 2°56.1 17.988461 0.645392 3.873655 -0.781249
2003-04-24 04:39:51 51°13.6 2°56.1 17.988461 0.645392 3.873655 -0.781249
2003-04-24 04:39:57 51°13.6 2°56.1 17.988836 0.645392 3.873655 -0.781249
2003-04-24 04:40:01 51°13.6 2°56.1 17.989336 0.645392 3.87378 -0.781249
2003-04-24 04:40:07 51°13.6 2°56.1 17.989794 0.645392 3.87378 -0.781249
2003-04-24 04:40:11 51°13.6 2°56.1 17.990085 0.645392 3.873843 -0.781249
2003-04-24 04:40:17 51°13.6 2°56.1 17.990377 0.645392 3.87378 -0.781249
2003-04-24 04:40:21 51°13.6 2°56.1 17.990377 0.645392 3.87378 -0.781249
2003-04-24 04:40:27 51°13.6 2°56.1 17.990835 0.645392 3.873906 -0.814958
2003-04-24 04:40:31 51°13.6 2°56.1 17.991376 0.645496 3.874576 -0.781249
2003-04-24 04:40:37 51°13.6 2°56.1 17.992126 0.645496 3.874576 -0.781249
2003-04-24 04:40:41 51°13.6 2°56.1 17.992709 0.645496 3.874639 -0.814958
2003-04-24 04:40:47 51°13.6 2°56.1 17.993375 0.645496 3.874639 -0.781249
2003-04-24 04:40:53 51°13.6 2°56.1 17.993375 0.645496 3.874639 -0.781249
2003-04-24 04:40:57 51°13.6 2°56.1 17.993917 0.645496 3.874701 -0.781249
2003-04-24 04:41:01 51°13.6 2°56.1 17.994291 0.645496 3.874764 -0.814958
2003-04-24 04:41:07 51°13.6 2°56.1 17.994583 0.645496 3.874764 -0.814958
2003-04-24 04:41:11 51°13.6 2°56.1 17.995249 0.645496 3.874827 -0.814958
2003-04-24 04:41:17 51°13.6 2°56.1 17.995874 0.645496 3.874827 -0.74754
2003-04-24 04:41:21 51°13.6 2°56.1 17.995874 0.645496 3.874827 -0.74754
2003-04-24 04:41:27 51°13.6 2°56.1 17.996332 0.645496 3.874827 -0.814958
2003-04-24 04:41:31 51°13.6 2°56.1 17.996832 0.645601 3.87556 -0.781249
2003-04-24 04:41:37 51°13.6 2°56.1 17.997373 0.645601 3.875622 -0.814958
2003-04-24 04:41:41 51°13.6 2°56.1 17.997831 0.645601 3.875685 -0.781249
2003-04-24 04:41:47 51°13.6 2°56.1 17.998289 0.645601 3.875685 -0.814958
2003-04-24 04:41:51 51°13.6 2°56.1 17.998289 0.645601 3.875685 -0.814958
2003-04-24 04:41:57 51°13.6 2°56.1 17.998789 0.645601 3.875748 -0.814958
2003-04-24 04:42:01 51°13.6 2°56.1 17.999372 0.645601 3.875748 -0.814958
2003-04-24 04:42:07 51°13.6 2°56.1 17.999705 0.645601 3.87581 -0.781249
2003-04-24 04:42:11 51°13.6 2°56.1 17.999996 0.645601 3.875873 -0.781249
2003-04-24 04:42:17 51°13.6 2°56.1 18.000205 0.645601 3.875873 -0.781249
2003-04-24 04:42:21 51°13.6 2°56.1 18.000205 0.645601 3.875873 -0.781249
2003-04-24 04:42:27 51°13.6 2°56.1 18.000121 0.645705 3.876543 -0.781249
2003-04-24 04:42:31 51°13.6 2°56.1 18.00008 0.645705 3.876606 -0.781249
2003-04-24 04:42:37 51°13.6 2°56.1 18.000871 0.645705 3.876606 -0.814958
2003-04-24 04:42:41 51°13.6 2°56.1 18.001579 0.645705 3.876669 -0.781249
2003-04-24 04:42:47 51°13.6 2°56.1 18.00187 0.645705 3.876794 -0.781249
2003-04-24 04:42:51 51°13.6 2°56.1 18.00187 0.645705 3.876794 -0.781249
2003-04-24 04:42:57 51°13.6 2°56.1 18.002453 0.645705 3.876794 -0.814958
2003-04-24 04:43:01 51°13.6 2°56.1 18.002453 0.645705 3.876857 -0.781249
2003-04-24 04:43:07 51°13.6 2°56.1 18.003078 0.645705 3.876857 -0.814958
2003-04-24 04:43:11 51°13.6 2°56.1 18.003869 0.645705 3.876857 -0.814958
2003-04-24 04:43:17 51°13.6 2°56.1 18.004702 0.645705 3.87692 -0.781249
2003-04-24 04:43:21 51°13.6 2°56.1 18.004702 0.645705 3.87692 -0.781249
2003-04-24 04:43:27 51°13.6 2°56.1 18.00516 0.64581 3.877653 -0.814958
2003-04-24 04:43:31 51°13.6 2°56.1 18.006284 0.64581 3.877653 -0.781249
2003-04-24 04:43:37 51°13.6 2°56.1 18.006575 0.64581 3.877778 -0.781249
2003-04-24 04:43:41 51°13.6 2°56.1 18.007325 0.64581 3.877716 -0.814958
2003-04-24 04:43:47 51°13.6 2°56.1 18.007949 0.64581 3.877778 -0.781249
2003-04-24 04:43:51 51°13.6 2°56.1 18.007949 0.64581 3.877778 -0.781249
2003-04-24 04:43:57 51°13.6 2°56.1 18.008407 0.64581 3.877841 -0.74754
2003-04-24 04:44:01 51°13.6 2°56.1 18.009198 0.64581 3.877841 -0.781249
2003-04-24 04:44:07 51°13.6 2°56.1 18.008782 0.64581 3.877966 -0.814958
2003-04-24 04:44:11 51°13.6 2°56.1 18.009365 0.64581 3.877966 -0.781249
2003-04-24 04:44:17 51°13.6 2°56.1 18.010114 0.645914 3.878637 -0.814958
2003-04-24 04:44:21 51°13.6 2°56.1 18.010114 0.645914 3.878637 -0.814958
2003-04-24 04:44:27 51°13.6 2°56.1 18.010572 0.645914 3.8787 -0.814958
2003-04-24 04:44:31 51°13.6 2°56.1 18.01153 0.645914 3.8787 -0.781249
2003-04-24 04:44:37 51°13.6 2°56.1 18.011697 0.645914 3.878763 -0.781249
2003-04-24 04:44:41 51°13.6 2°56.1 18.012654 0.645914 3.878825 -0.814958
2003-04-24 04:44:47 51°13.6 2°56.1 18.013487 0.645914 3.878888 -0.781249
2003-04-24 04:44:51 51°13.6 2°56.1 18.013487 0.645914 3.878888 -0.781249
2003-04-24 04:44:57 51°13.6 2°56.1 18.013945 0.645914 3.878951 -0.814958
2003-04-24 04:45:01 51°13.6 2°56.1 18.014902 0.645914 3.878888 -0.814958
2003-04-24 04:45:07 51°13.6 2°56.1 18.015069 0.645914 3.878951 -0.781249
2003-04-24 04:45:11 51°13.6 2°56.1 18.01536 0.645914 3.879014 -0.781249
2003-04-24 04:45:17 51°13.6 2°56.1 18.01611 0.645914 3.879014 -0.814958
2003-04-24 04:45:21 51°13.6 2°56.1 18.01611 0.645914 3.879014 -0.814958
2003-04-24 04:45:27 51°13.6 2°56.1 18.016318 0.645914 3.879076 -0.781249
2003-04-24 04:45:31 51°13.6 2°56.1 18.017234 0.645914 3.879076 -0.781249
2003-04-24 04:45:37 51°13.6 2°56.1 18.017775 0.646019 3.879873 -0.781249
2003-04-24 04:45:41 51°13.6 2°56.1 18.018233 0.646019 3.879873 -0.814958
2003-04-24 04:45:47 51°13.6 2°56.1 18.018857 0.646019 3.879873 -0.781249
2003-04-24 04:45:51 51°13.6 2°56.1 18.018857 0.646019 3.879873 -0.781249
2003-04-24 04:45:57 51°13.6 2°56.1 18.019232 0.646019 3.879935 -0.781249
2003-04-24 04:46:01 51°13.6 2°56.1 18.01994 0.646019 3.879935 -0.814958
2003-04-24 04:46:07 51°13.6 2°56.1 18.020647 0.646019 3.879998 -0.74754
2003-04-24 04:46:11 51°13.6 2°56.1 18.021355 0.646019 3.880061 -0.814958
2003-04-24 04:46:17 51°13.6 2°56.1 18.02123 0.646019 3.880061 -0.781249
2003-04-24 04:46:21 51°13.6 2°56.1 18.02123 0.646019 3.880061 -0.781249
2003-04-24 04:46:27 51°13.6 2°56.1 18.022146 0.646019 3.880124 -0.781249
2003-04-24 04:46:31 51°13.6 2°56.1 18.022104 0.646019 3.880186 -0.814958
2003-04-24 04:46:37 51°13.6 2°56.1 18.023145 0.646019 3.880249 -0.814958
2003-04-24 04:46:41 51°13.6 2°56.1 18.023644 0.646123 3.88092 -0.781249
2003-04-24 04:46:47 51°13.6 2°56.1 18.023395 0.646123 3.880983 -0.814958
2003-04-24 04:46:51 51°13.6 2°56.1 18.023395 0.646123 3.880983 -0.814958
2003-04-24 04:46:57 51°13.6 2°56.1 -999 0.646123 3.880983 -0.814958
2003-04-24 04:47:01 51°13.6 2°56.1 -999 0.646123 3.881046 -0.781249
2003-04-24 04:47:07 51°13.6 2°56.1 -999 0.646123 3.881108 -0.781249
2003-04-24 04:47:11 51°13.6 2°56.1 -999 0.646123 3.881108 -0.814958
2003-04-24 04:47:17 51°13.6 2°56.1 -999 0.646123 3.881108 -0.74754
2003-04-24 04:47:21 51°13.6 2°56.1 -999 0.646123 3.881108 -0.74754
2003-04-24 04:47:27 51°13.6 2°56.1 -999 0.646123 3.881171 -0.781249
2003-04-24 04:47:31 51°13.6 2°56.1 -999 0.646123 3.881297 -0.814958
2003-04-24 04:47:37 51°13.6 2°56.1 -999 0.646123 3.881297 -0.814958
2003-04-24 04:47:41 51°13.6 2°56.1 -999 0.646123 3.881297 -0.781249
2003-04-24 04:47:47 51°13.6 2°56.1 -999 0.646123 3.88136 -0.814958
2003-04-24 04:47:51 51°13.6 2°56.1 -999 0.646123 3.88136 -0.814958
2003-04-24 04:47:57 51°13.6 2°56.1 -999 0.646123 3.881422 -0.781249
2003-04-24 04:48:01 51°13.6 2°56.1 -999 0.646123 3.881485 -0.781249
2003-04-24 04:48:07 51°13.6 2°56.1 -999 0.646228 3.882156 -0.781249
2003-04-24 04:48:11 51°13.6 2°56.1 -999 0.646228 3.882219 -0.814958
2003-04-24 04:48:17 51°13.6 2°56.1 -999 0.646228 3.882156 -0.814958
2003-04-24 04:48:21 51°13.6 2°56.1 -999 0.646228 3.882156 -0.814958
2003-04-24 04:48:27 51°13.6 2°56.1 -999 0.646228 3.882282 -0.781249
2003-04-24 04:48:31 51°13.6 2°56.1 -999 0.646228 3.882282 -0.781249
2003-04-24 04:48:37 51°13.6 2°56.1 -999 0.646228 3.882345 -0.814958
2003-04-24 04:48:41 51°13.6 2°56.1 -999 0.646228 3.882407 -0.781249
2003-04-24 04:48:47 51°13.6 2°56.1 -999 0.646228 3.882407 -0.781249
2003-04-24 04:48:51 51°13.6 2°56.1 -999 0.646228 3.882407 -0.781249
2003-04-24 04:48:57 51°13.6 2°56.1 -999 0.646228 3.882407 -0.814958
2003-04-24 04:49:01 51°13.6 2°56.1 -999 0.646228 3.882407 -0.781249
2003-04-24 04:49:07 51°13.6 2°56.1 -999 0.646228 3.882533 -0.781249
2003-04-24 04:49:11 51°13.6 2°56.1 -999 0.646228 3.882596 -0.814958
2003-04-24 04:49:17 51°13.6 2°56.1 -999 0.646228 3.882596 -0.781249
2003-04-24 04:49:21 51°13.6 2°56.1 -999 0.646228 3.882596 -0.781249
2003-04-24 04:49:27 51°13.6 2°56.1 -999 0.646228 3.882596 -0.781249
2003-04-24 04:49:31 51°13.6 2°56.1 -999 0.646332 3.88333 -0.781249
2003-04-24 04:49:37 51°13.6 2°56.1 -999 0.646332 3.883393 -0.781249
2003-04-24 04:49:41 51°13.6 2°56.1 -999 0.646332 3.883393 -0.781249
2003-04-24 04:49:47 51°13.6 2°56.1 -999 0.646332 3.883393 -0.781249
2003-04-24 04:49:51 51°13.6 2°56.1 -999 0.646332 3.883393 -0.781249
2003-04-24 04:49:57 51°13.6 2°56.1 -999 0.646332 3.883456 -0.781249
2003-04-24 04:50:01 51°13.6 2°56.1 -999 0.646332 3.883456 -0.814958
2003-04-24 04:50:07 51°13.6 2°56.1 -999 0.646332 3.883518 -0.74754
2003-04-24 04:50:11 51°13.6 2°56.1 -999 0.646332 3.883581 -0.781249
2003-04-24 04:50:17 51°13.6 2°56.09 -999 0.646332 3.883581 -0.814958
2003-04-24 04:50:21 51°13.6 2°56.09 -999 0.646332 3.883581 -0.814958
2003-04-24 04:50:27 51°13.61 2°56.08 -999 0.646332 3.883644 -0.814958
2003-04-24 04:50:31 51°13.61 2°56.08 -999 0.646332 3.883644 -0.781249
2003-04-24 04:50:37 51°13.61 2°56.07 -999 0.646332 3.883644 -0.781249
2003-04-24 04:50:41 51°13.61 2°56.07 -999 0.646332 3.883707 -0.781249
2003-04-24 04:50:47 51°13.61 2°56.06 -999 0.646332 3.883707 -0.814958
2003-04-24 04:50:51 51°13.61 2°56.05 -999 0.646332 3.883707 -0.814958
2003-04-24 04:50:57 51°13.61 2°56.04 -999 0.646332 3.883707 -0.814958
2003-04-24 04:51:01 51°13.62 2°56.04 -999 0.646332 3.883707 -0.781249
2003-04-24 04:51:07 51°13.62 2°56.03 -999 0.646332 3.88377 -0.781249
2003-04-24 04:51:11 51°13.62 2°56.02 -999 0.646332 3.883707 -0.781249
2003-04-24 04:51:17 51°13.62 2°56.01 -999 0.646332 3.883707 -0.781249
2003-04-24 04:51:21 51°13.62 2°56 -999 0.646332 3.883707 -0.781249
2003-04-24 04:51:27 51°13.63 2°55.99 -999 0.646332 3.883707 -0.781249
2003-04-24 04:51:31 51°13.63 2°55.98 -999 0.646332 3.883833 -0.781249
2003-04-24 04:51:37 51°13.63 2°55.97 -999 0.651345 3.9247 -0.376736
2003-04-24 04:51:41 51°13.63 2°55.96 -999 0.653121 3.963645 -0.005933
2003-04-24 04:51:47 51°13.64 2°55.95 -999 0.699808 4.214548 13.208153
2003-04-24 04:51:51 51°13.64 2°55.94 -999 0.699808 4.214548 13.208153
2003-04-24 04:51:57 51°13.64 2°55.93 -999 1.705171 11.231001 46.984973
2003-04-24 04:52:01 51°13.65 2°55.92 -999 2.498671 17.577291 68.221896
2003-04-24 04:52:07 51°13.65 2°55.91 -999 2.584692 18.744381 68.087059
2003-04-24 04:52:11 51°13.65 2°55.9 -999 3.180078 24.090992 68.087059
2003-04-24 04:52:17 51°13.66 2°55.89 -999 3.342365 26.089586 68.120768
2003-04-24 04:52:23 51°13.66 2°55.88 -999 3.342365 26.089586 68.120768
2003-04-24 04:52:27 51°13.66 2°55.87 -999 3.329316 26.641556 68.087059
2003-04-24 04:52:31 51°13.67 2°55.86 -999 3.268029 26.502551 68.087059
2003-04-24 04:52:37 51°13.67 2°55.85 -999 3.240551 26.646325 68.120768
2003-04-24 04:52:41 51°13.67 2°55.84 -999 3.223284 26.700251 68.120768
2003-04-24 04:52:47 51°13.67 2°55.83 -999 3.208756 26.782883 68.087059
2003-04-24 04:52:51 51°13.68 2°55.83 -999 3.208756 26.782883 68.087059
2003-04-24 04:52:57 51°13.68 2°55.82 -999 3.19128 26.770737 68.087059
2003-04-24 04:53:03 51°13.68 2°55.81 -999 3.182437 26.802784 68.087059
2003-04-24 04:53:07 51°13.68 2°55.8 -999 3.178437 26.841112 68.087059
2003-04-24 04:53:11 51°13.68 2°55.79 -999 3.175279 26.854329 68.087059
2003-04-24 04:53:17 51°13.68 2°55.78 -999 3.171805 26.87198 68.120768
2003-04-24 04:53:21 51°13.68 2°55.78 -999 3.171805 26.87198 68.120768
2003-04-24 04:53:27 51°13.68 2°55.77 -999 3.155801 26.757024 68.120768
2003-04-24 04:53:31 51°13.68 2°55.76 -999 3.169068 26.922696 68.120768
2003-04-24 04:53:37 51°13.68 2°55.75 -999 3.155697 26.826012 68.087059
2003-04-24 04:53:41 51°13.68 2°55.75 -999 3.164226 26.924886 68.087059
2003-04-24 04:53:47 51°13.68 2°55.74 -999 3.152013 26.825354 68.120768
2003-04-24 04:53:51 51°13.68 2°55.74 -999 3.152013 26.825354 68.120768
2003-04-24 04:53:57 51°13.68 2°55.73 -999 3.1398 26.726905 68.154477
2003-04-24 04:54:01 51°13.68 2°55.73 -999 3.133272 26.677366 68.053349
2003-04-24 04:54:07 51°13.68 2°55.73 -999 3.126219 26.618907 68.120768
2003-04-24 04:54:13 51°13.68 2°55.72 -999 3.123166 26.605952 68.087059
2003-04-24 04:54:17 51°13.68 2°55.72 -999 3.118533 26.569676 68.087059
2003-04-24 04:54:21 51°13.69 2°55.72 -999 3.118533 26.569676 68.087059
2003-04-24 04:54:27 51°13.69 2°55.72 -999 2.946746 24.966123 68.087059
2003-04-24 04:54:31 51°13.69 2°55.72 -999 3.104426 26.458806 68.087059
2003-04-24 04:54:37 51°13.69 2°55.72 -999 3.106322 26.487312 68.120768
2003-04-24 04:54:41 51°13.69 2°55.72 -999 3.102848 26.463575 68.120768
2003-04-24 04:54:47 51°13.69 2°55.72 -999 3.100005 26.437364 68.087059
2003-04-24 04:54:51 51°13.69 2°55.72 -999 3.100005 26.437364 68.087059
2003-04-24 04:54:57 51°13.69 2°55.72 -999 3.099374 26.435901 68.087059
2003-04-24 04:55:01 51°13.69 2°55.72 -999 3.099268 26.442765 68.087059
2003-04-24 04:55:07 51°13.7 2°55.72 -999 3.100216 26.458994 68.087059
2003-04-24 04:55:11 51°13.7 2°55.72 -999 3.0999 26.468944 68.120768
2003-04-24 04:55:17 51°13.7 2°55.72 -999 3.096426 26.439556 68.120768
2003-04-24 04:55:21 51°13.7 2°55.72 -999 3.096426 26.439556 68.120768
2003-04-24 04:55:27 51°13.71 2°55.72 -999 3.087478 26.360793 68.087059
2003-04-24 04:55:31 51°13.71 2°55.72 -999 3.075898 26.254994 68.120768
2003-04-24 04:55:37 51°13.71 2°55.72 -999 3.059897 26.103698 68.087059
2003-04-24 04:55:41 51°13.71 2°55.72 -999 3.050002 26.008877 68.120768
2003-04-24 04:55:47 51°13.72 2°55.72 -999 3.038634 25.905754 68.087059
2003-04-24 04:55:51 51°13.72 2°55.72 -999 3.038634 25.905754 68.087059
2003-04-24 04:55:57 51°13.73 2°55.71 -999 3.032423 25.852273 68.120768
2003-04-24 04:56:01 51°13.73 2°55.71 -999 3.02695 25.808465 68.087059
2003-04-24 04:56:07 51°13.73 2°55.71 -999 3.02516 25.794372 68.120768
2003-04-24 04:56:11 51°13.74 2°55.71 -999 3.029687 25.839161 68.087059
2003-04-24 04:56:17 51°13.74 2°55.7 -999 3.032423 25.869872 68.120768
2003-04-24 04:56:21 51°13.75 2°55.7 -999 3.032423 25.869872 68.120768
2003-04-24 04:56:27 51°13.75 2°55.69 -999 3.036108 25.909521 68.087059
2003-04-24 04:56:31 51°13.76 2°55.69 -999 3.036739 25.919881 68.087059
2003-04-24 04:56:37 51°13.76 2°55.68 -999 3.038739 25.942587 68.053349
2003-04-24 04:56:41 51°13.77 2°55.68 -999 3.037687 25.936534 68.120768
2003-04-24 04:56:47 51°13.78 2°55.67 -999 3.037371 25.939634 68.087059
2003-04-24 04:56:51 51°13.79 2°55.66 -999 3.037371 25.939634 68.087059
2003-04-24 04:56:57 51°13.8 2°55.65 -999 3.035476 25.925641 68.087059
2003-04-24 04:57:01 51°13.81 2°55.65 -999 3.032003 25.894557 68.120768
2003-04-24 04:57:07 51°13.82 2°55.64 -999 3.024634 25.825674 68.120768
2003-04-24 04:57:11 51°13.82 2°55.64 -999 3.02095 25.793713 68.053349
2003-04-24 04:57:17 51°13.83 2°55.64 -999 3.015477 25.739411 68.087059
2003-04-24 04:57:21 51°13.83 2°55.63 -999 3.015477 25.739411 68.087059
2003-04-24 04:57:27 51°13.84 2°55.63 -999 3.008319 25.671467 68.087059
2003-04-24 04:57:31 51°13.85 2°55.62 -999 3.001688 25.609047 68.120768
2003-04-24 04:57:37 51°13.86 2°55.62 -999 3.002004 25.616384 68.087059
2003-04-24 04:57:41 51°13.86 2°55.61 -999 3.003899 25.63695 68.053349
2003-04-24 04:57:47 51°13.87 2°55.6 -999 3.002741 25.629326 68.120768
2003-04-24 04:57:51 51°13.88 2°55.6 -999 3.002741 25.629326 68.120768
2003-04-24 04:57:57 51°13.89 2°55.59 -999 3.008214 25.68689 68.120768
2003-04-24 04:58:01 51°13.9 2°55.59 -999 3.012951 25.736454 68.120768
2003-04-24 04:58:07 51°13.91 2°55.58 -999 3.02053 25.810092 68.087059
2003-04-24 04:58:11 51°13.92 2°55.58 -999 3.026635 25.871524 68.120768
2003-04-24 04:58:17 51°13.93 2°55.57 -999 3.03274 25.934651 68.087059
2003-04-24 04:58:21 51°13.94 2°55.56 -999 3.03274 25.934651 68.087059
2003-04-24 04:58:27 51°13.95 2°55.56 -999 3.038951 25.996598 68.053349
2003-04-24 04:58:31 51°13.95 2°55.55 -999 3.045898 26.0622 68.120768
2003-04-24 04:58:37 51°13.97 2°55.54 -999 3.05274 26.132963 68.120768
2003-04-24 04:58:41 51°13.97 2°55.54 -999 3.059056 26.198246 68.087059
2003-04-24 04:58:47 51°13.99 2°55.53 -999 3.068741 26.298248 68.120768
2003-04-24 04:58:51 51°13.99 2°55.52 -999 3.068741 26.298248 68.120768
2003-04-24 04:58:57 51°14 2°55.52 -999 3.076953 26.384403 68.087059
2003-04-24 04:59:01 51°14.01 2°55.51 -999 3.094744 26.560294 68.120768
2003-04-24 04:59:07 51°14.02 2°55.51 -999 3.107588 26.682636 68.087059
2003-04-24 04:59:11 51°14.03 2°55.5 -999 3.114852 26.756688 68.087059
2003-04-24 04:59:17 51°14.04 2°55.5 -999 3.120748 26.818373 68.053349
2003-04-24 04:59:23 51°14.05 2°55.49 -999 3.120748 26.818373 68.053349
2003-04-24 04:59:27 51°14.06 2°55.48 -999 3.126117 26.876825 68.120768
2003-04-24 04:59:31 51°14.07 2°55.48 -999 3.13475 26.96288 68.120768
2003-04-24 04:59:37 51°14.08 2°55.47 -999 3.133381 26.949297 68.087059
2003-04-24 04:59:41 51°14.09 2°55.47 -999 3.133066 26.946295 68.154477
2003-04-24 04:59:47 51°14.1 2°55.46 -999 3.137803 26.988434 68.120768
2003-04-24 04:59:51 51°14.1 2°55.46 -999 3.137803 26.988434 68.120768
2003-04-24 04:59:57 51°14.12 2°55.45 -999 3.136224 26.971695 68.053349
2003-04-24 05:00:01 51°14.12 2°55.44 -999 3.133381 26.944108 68.087059
2003-04-24 05:00:07 51°14.14 2°55.44 -999 3.129381 26.91013 68.120768
2003-04-24 05:00:11 51°14.14 2°55.43 -999 3.122222 26.840402 68.120768
2003-04-24 05:00:17 51°14.15 2°55.42 -999 3.113378 26.757005 68.120768
2003-04-24 05:00:21 51°14.16 2°55.42 -999 3.113378 26.757005 68.120768
2003-04-24 05:00:27 51°14.17 2°55.41 -999 3.107061 26.69362 68.120768
2003-04-24 05:00:31 51°14.18 2°55.4 -999 3.099797 26.620144 68.120768
2003-04-24 05:00:37 51°14.19 2°55.39 -999 3.102429 26.643969 68.120768
2003-04-24 05:00:41 51°14.2 2°55.38 -999 3.105272 26.672644 68.053349
2003-04-24 05:00:47 51°14.21 2°55.37 -999 3.101903 26.638406 68.087059
2003-04-24 05:00:51 51°14.22 2°55.36 -999 3.101903 26.638406 68.087059
2003-04-24 05:00:57 51°14.23 2°55.35 -999 3.104429 26.665794 68.053349
2003-04-24 05:01:03 51°14.24 2°55.34 -999 3.107377 26.693192 68.120768
2003-04-24 05:01:07 51°14.25 2°55.33 -999 3.104535 26.667363 68.120768
2003-04-24 05:01:11 51°14.25 2°55.32 -999 3.105903 26.680348 68.120768
2003-04-24 05:01:17 51°14.26 2°55.3 -999 3.096849 26.593325 68.087059
2003-04-24 05:01:21 51°14.27 2°55.29 -999 3.096849 26.593325 68.087059
2003-04-24 05:01:27 51°14.28 2°55.27 -999 3.094639 26.56895 68.154477
2003-04-24 05:01:31 51°14.28 2°55.26 -999 3.085164 26.47687 68.053349
2003-04-24 05:01:37 51°14.29 2°55.25 -999 3.072426 26.352811 68.053349
2003-04-24 05:01:43 51°14.3 2°55.23 -999 3.053583 26.166053 68.120768
2003-04-24 05:01:47 51°14.3 2°55.22 -999 3.034319 25.976708 68.120768
2003-04-24 05:01:51 51°14.31 2°55.21 -999 3.034319 25.976708 68.120768
2003-04-24 05:01:57 51°14.32 2°55.19 -999 3.012109 25.759276 68.087059
2003-04-24 05:02:01 51°14.33 2°55.18 -999 2.994952 25.587625 68.087059
2003-04-24 05:02:07 51°14.33 2°55.16 -999 2.975796 25.397959 68.120768
2003-04-24 05:02:11 51°14.34 2°55.15 -999 2.965692 25.294245 68.120768
2003-04-24 05:02:17 51°14.35 2°55.14 -999 2.955273 25.189292 68.120768
2003-04-24 05:02:21 51°14.35 2°55.13 -999 2.955273 25.189292 68.120768
2003-04-24 05:02:27 51°14.36 2°55.11 -999 2.945801 25.095481 68.087059
2003-04-24 05:02:31 51°14.37 2°55.1 -999 2.938644 25.024013 68.120768
2003-04-24 05:02:37 51°14.37 2°55.08 -999 2.93675 25.007829 68.087059
2003-04-24 05:02:41 51°14.38 2°55.07 -999 2.947169 25.106192 68.120768
2003-04-24 05:02:47 51°14.39 2°55.05 -999 2.953694 25.171238 68.087059
2003-04-24 05:02:53 51°14.4 2°55.04 -999 2.953694 25.171238 68.087059
2003-04-24 05:02:57 51°14.4 2°55.03 -999 2.972639 25.359046 68.120768
2003-04-24 05:03:01 51°14.41 2°55.02 -999 2.988321 25.514798 68.120768
2003-04-24 05:03:07 51°14.42 2°55 -999 3.002741 25.657759 68.087059
2003-04-24 05:03:11 51°14.43 2°54.99 -999 3.010846 25.742412 68.087059
2003-04-24 05:03:17 51°14.44 2°54.98 -999 3.03453 25.971486 68.087059
2003-04-24 05:03:21 51°14.44 2°54.96 -999 3.03453 25.971486 68.087059
2003-04-24 05:03:27 51°14.45 2°54.94 -999 3.048846 26.114556 68.087059
2003-04-24 05:03:31 51°14.45 2°54.93 -999 3.055583 26.186651 68.087059
2003-04-24 05:03:37 51°14.46 2°54.9 -999 3.0719 26.347826 68.087059
2003-04-24 05:03:41 51°14.46 2°54.89 -999 3.07569 26.389923 68.120768
2003-04-24 05:03:47 51°14.47 2°54.86 -999 3.088533 26.522974 68.120768
2003-04-24 05:03:51 51°14.47 2°54.85 -999 3.088533 26.522974 68.120768
2003-04-24 05:03:57 51°14.47 2°54.82 -999 3.096429 26.614376 68.120768
2003-04-24 05:04:01 51°14.47 2°54.8 -999 3.113063 26.789542 68.120768
2003-04-24 05:04:07 51°14.47 2°54.77 -999 3.137594 27.044881 68.053349
2003-04-24 05:04:11 51°14.47 2°54.75 -999 3.164653 27.339115 68.120768
2003-04-24 05:04:17 51°14.47 2°54.73 -999 3.200979 27.719026 68.087059
2003-04-24 05:04:21 51°14.47 2°54.71 -999 3.200979 27.719026 68.087059
2003-04-24 05:04:27 51°14.47 2°54.68 -999 3.221618 27.948019 68.087059
2003-04-24 05:04:33 51°14.46 2°54.65 -999 3.250577 28.260171 68.154477
2003-04-24 05:04:37 51°14.46 2°54.63 -999 3.273955 28.509174 68.188187
2003-04-24 05:04:41 51°14.45 2°54.61 -999 3.29744 28.764841 68.154477
2003-04-24 05:04:47 51°14.45 2°54.58 -999 3.302074 28.82955 68.154477
2003-04-24 05:04:51 51°14.44 2°54.57 -999 3.302074 28.82955 68.154477
2003-04-24 05:04:57 51°14.43 2°54.54 -999 3.315029 28.973622 68.221896
2003-04-24 05:05:01 51°14.43 2°54.52 -999 3.32872 29.114376 68.221896
2003-04-24 05:05:07 51°14.42 2°54.5 -999 3.335777 29.193499 68.221896
2003-04-24 05:05:11 51°14.42 2°54.48 -999 3.347994 29.314509 68.221896
2003-04-24 05:05:17 51°14.41 2°54.45 -999 3.352102 29.36136 68.221896
2003-04-24 05:05:21 51°14.4 2°54.44 -999 3.352102 29.36136 68.221896
2003-04-24 05:05:27 51°14.39 2°54.41 -999 3.368744 29.524194 68.255606
2003-04-24 05:05:31 51°14.38 2°54.39 -999 3.374432 29.587139 68.289315
2003-04-24 05:05:37 51°14.37 2°54.37 -999 3.368112 29.528303 68.255606
2003-04-24 05:05:41 51°14.37 2°54.35 -999 3.371377 29.567083 68.289315
2003-04-24 05:05:47 51°14.36 2°54.32 -999 3.377908 29.642139 68.289315
2003-04-24 05:05:51 51°14.35 2°54.31 -999 3.377908 29.642139 68.289315
2003-04-24 05:05:57 51°14.34 2°54.28 -999 3.384965 29.718527 68.356734
2003-04-24 05:06:01 51°14.34 2°54.26 -999 3.382437 29.701025 68.457862
2003-04-24 05:06:07 51°14.33 2°54.24 -999 3.378645 29.671861 68.356734
2003-04-24 05:06:11 51°14.32 2°54.22 -999 3.387915 29.76339 68.289315
2003-04-24 05:06:17 51°14.31 2°54.2 -999 3.383912 29.732819 68.390443
2003-04-24 05:06:23 51°14.3 2°54.17 -999 3.383912 29.732819 68.390443
2003-04-24 05:06:27 51°14.3 2°54.15 -999 3.386229 29.754741 67.44658
2003-04-24 05:06:31 51°14.29 2°54.14 -999 3.387072 29.764242 68.424153
2003-04-24 05:06:37 51°14.28 2°54.11 -999 3.385703 29.754139 68.120768
2003-04-24 05:06:41 51°14.27 2°54.09 -999 3.388652 29.784164 68.457862
2003-04-24 05:06:47 51°14.27 2°54.07 -999 3.388125 29.782919 68.525281
2003-04-24 05:06:51 51°14.26 2°54.05 -999 3.388125 29.782919 68.525281
2003-04-24 05:06:57 51°14.25 2°54.02 -999 3.381911 29.726256 68.221896
2003-04-24 05:07:01 51°14.24 2°54.01 -999 3.388652 29.795179 68.221896
2003-04-24 05:07:07 51°14.23 2°53.98 -999 3.38644 29.775566 68.289315
2003-04-24 05:07:11 51°14.23 2°53.96 -999 3.389179 29.806796 68.289315
2003-04-24 05:07:17 51°14.22 2°53.94 -999 3.39276 29.844958 68.255606
2003-04-24 05:07:21 51°14.21 2°53.92 -999 3.39276 29.844958 68.255606
2003-04-24 05:07:27 51°14.2 2°53.89 -999 3.38307 29.753076 68.255606
2003-04-24 05:07:33 51°14.2 2°53.87 -999 3.388652 29.810744 68.255606
2003-04-24 05:07:37 51°14.19 2°53.85 -999 3.391812 29.84026 68.255606
2003-04-24 05:07:41 51°14.18 2°53.83 -999 3.392234 29.845668 68.323024
2003-04-24 05:07:47 51°14.17 2°53.81 -999 3.391602 29.844052 68.255606
2003-04-24 05:07:51 51°14.17 2°53.79 -999 3.391602 29.844052 68.255606
2003-04-24 05:07:57 51°14.16 2°53.76 -999 3.393182 29.860764 68.255606
2003-04-24 05:08:03 51°14.15 2°53.74 -999 3.393814 29.870181 68.289315
2003-04-24 05:08:07 51°14.14 2°53.72 -999 3.393182 29.865316 68.255606
2003-04-24 05:08:11 51°14.14 2°53.71 -999 3.391918 29.856885 68.255606
2003-04-24 05:08:17 51°14.13 2°53.68 -999 3.393709 29.875659 68.255606
2003-04-24 05:08:21 51°14.12 2°53.67 -999 3.393709 29.875659 68.255606
2003-04-24 05:08:27 51°14.11 2°53.64 -999 3.393498 29.872953 68.289315
2003-04-24 05:08:31 51°14.1 2°53.63 -999 3.394341 29.882477 68.289315
2003-04-24 05:08:37 51°14.09 2°53.6 -999 3.395605 29.897418 68.221896
2003-04-24 05:08:41 51°14.08 2°53.59 -999 3.39413 29.884327 68.289315
2003-04-24 05:08:47 51°14.07 2°53.56 -999 3.394341 29.889639 68.255606
2003-04-24 05:08:51 51°14.06 2°53.55 -999 3.394341 29.889639 68.255606
2003-04-24 05:08:57 51°14.05 2°53.52 -999 3.394235 29.890564 68.289315
2003-04-24 05:09:01 51°14.05 2°53.5 -999 3.394973 29.901672 68.255606
2003-04-24 05:09:06 51°14.04 2°53.48 -999 3.39413 29.894747 68.221896
2003-04-24 05:09:12 51°14.03 2°53.46 -999 3.394341 29.898759 68.221896
2003-04-24 05:09:17 51°14.02 2°53.43 -999 3.393919 29.897903 68.255606
2003-04-24 05:09:21 51°14.02 2°53.42 -999 3.393919 29.897903 68.255606
2003-04-24 05:09:26 51°14.01 2°53.39 -999 3.395183 29.910899 68.289315
2003-04-24 05:09:31 51°14 2°53.37 -999 3.393182 29.893961 68.491571
2003-04-24 05:09:37 51°14 2°53.35 -999 3.39234 29.886383 68.255606
2003-04-24 05:09:41 51°13.99 2°53.33 -999 3.392445 29.888063 68.255606
2003-04-24 05:09:46 51°13.98 2°53.31 -999 3.39234 29.889641 68.255606
2003-04-24 05:09:51 51°13.98 2°53.28 -999 3.39234 29.889641 68.255606
2003-04-24 05:09:56 51°13.97 2°53.26 -999 3.390654 29.874484 68.255606
2003-04-24 05:10:01 51°13.96 2°53.24 -999 3.390549 29.878667 68.221896
2003-04-24 05:10:07 51°13.96 2°53.21 -999 3.392234 29.895783 68.221896
2003-04-24 05:10:11 51°13.95 2°53.19 -999 3.394025 29.912624 68.221896
2003-04-24 05:10:16 51°13.94 2°53.17 -999 3.393604 29.90916 68.255606
2003-04-24 05:10:21 51°13.94 2°53.15 -999 3.393604 29.90916 68.255606
2003-04-24 05:10:27 51°13.93 2°53.12 -999 3.394657 29.921409 68.255606
2003-04-24 05:10:31 51°13.92 2°53.11 -999 3.394236 29.919903 68.221896
2003-04-24 05:10:37 51°13.91 2°53.08 -999 3.392761 29.904841 68.255606
2003-04-24 05:10:41 51°13.91 2°53.06 -999 3.393814 29.915786 68.255606
2003-04-24 05:10:47 51°13.9 2°53.03 -999 3.391181 29.890708 68.289315
2003-04-24 05:10:51 51°13.89 2°53.01 -999 3.391181 29.890708 68.289315
2003-04-24 05:10:57 51°13.88 2°52.98 -999 3.391392 29.89407 68.255606
2003-04-24 05:11:01 51°13.88 2°52.96 -999 3.393709 29.919978 68.255606
2003-04-24 05:11:07 51°13.87 2°52.93 -999 3.392656 29.910336 68.289315
2003-04-24 05:11:11 51°13.86 2°52.91 -999 3.386125 29.847825 68.289315
2003-04-24 05:11:17 51°13.85 2°52.88 -999 3.393288 29.918471 68.289315
2003-04-24 05:11:21 51°13.84 2°52.86 -999 3.393288 29.918471 68.289315
2003-04-24 05:11:27 51°13.84 2°52.83 -999 3.391392 29.899941 68.221896
2003-04-24 05:11:31 51°13.83 2°52.81 -999 3.389707 29.883471 68.221896
2003-04-24 05:11:37 51°13.82 2°52.78 -999 3.390444 29.892633 68.221896
2003-04-24 05:11:41 51°13.81 2°52.76 -999 3.393604 29.923518 68.457862
2003-04-24 05:11:47 51°13.8 2°52.73 -999 3.392024 29.911338 68.390443
2003-04-24 05:11:51 51°13.8 2°52.71 -999 3.392024 29.911338 68.390443
2003-04-24 05:11:57 51°13.79 2°52.68 -999 3.388232 29.875579 68.188187
2003-04-24 05:12:01 51°13.78 2°52.66 -999 3.390339 29.897475 67.44658
2003-04-24 05:12:07 51°13.77 2°52.63 -999 3.393288 29.927613 67.278033
2003-04-24 05:12:11 51°13.76 2°52.61 -999 3.390971 29.905611 66.940939
2003-04-24 05:12:16 51°13.76 2°52.58 -999 3.386547 29.86367 66.469007
2003-04-24 05:12:21 51°13.75 2°52.56 -999 3.386547 29.86367 66.469007
2003-04-24 05:12:27 51°13.74 2°52.53 -999 3.392761 29.924424 66.266751
2003-04-24 05:12:30 51°13.73 2°52.51 -999 3.390971 29.909528 65.322888
2003-04-24 05:12:36 51°13.72 2°52.48 -999 3.38918 29.893326 65.019503
2003-04-24 05:12:43 51°13.71 2°52.45 -999 3.392129 29.922817 64.918375
2003-04-24 05:12:47 51°13.7 2°52.43 -999 3.38918 29.894632 64.07564
2003-04-24 05:12:51 51°13.7 2°52.41 -999 3.38918 29.894632 64.07564
2003-04-24 05:12:57 51°13.69 2°52.37 -999 3.39234 29.926837 63.940802
2003-04-24 05:13:00 51°13.68 2°52.36 -999 3.391813 29.9243 63.300324
2003-04-24 05:13:07 51°13.67 2°52.32 -999 3.391497 29.92121 62.154204
2003-04-24 05:13:11 51°13.66 2°52.3 -999 3.384756 29.857248 61.142922
2003-04-24 05:13:16 51°13.66 2°52.28 -999 3.390655 29.916235 59.861965
2003-04-24 05:13:21 51°13.65 2°52.25 -999 3.390655 29.916235 59.861965
2003-04-24 05:13:27 51°13.64 2°52.22 -999 3.385494 29.867066 57.974238
2003-04-24 05:13:30 51°13.63 2°52.21 -999 3.386231 29.872319 57.333759
2003-04-24 05:13:37 51°13.62 2°52.17 -999 3.393077 29.937316 56.322477
2003-04-24 05:13:41 51°13.62 2°52.15 -999 3.39392 29.943596 55.243777
2003-04-24 05:13:46 51°13.61 2°52.13 -999 3.38581 29.86233 54.198785
2003-04-24 05:13:53 51°13.6 2°52.09 -999 3.38581 29.86233 54.198785
2003-04-24 05:13:57 51°13.59 2°52.07 -999 3.394341 29.945755 53.490888
2003-04-24 05:14:01 51°13.58 2°52.05 -999 3.393604 29.934623 52.479606
2003-04-24 05:14:07 51°13.57 2°52.02 -999 3.395289 29.949796 50.827845
2003-04-24 05:14:11 51°13.57 2°52 -999 3.396027 29.956352 49.681725
2003-04-24 05:14:17 51°13.56 2°51.97 -999 3.393077 29.926207 49.041247
2003-04-24 05:14:21 51°13.55 2°51.95 -999 3.393077 29.926207 49.041247
2003-04-24 05:14:27 51°13.54 2°51.92 -999 3.396975 29.96366 48.29964
2003-04-24 05:14:31 51°13.53 2°51.9 -999 3.396027 29.950468 47.895127
2003-04-24 05:14:37 51°13.52 2°51.87 -999 3.397185 29.96245 47.456905
2003-04-24 05:14:41 51°13.52 2°51.85 -999 3.398555 29.975185 47.524324
2003-04-24 05:14:47 51°13.51 2°51.82 -999 3.397923 29.970314 47.288358
2003-04-24 05:14:51 51°13.5 2°51.8 -999 3.397923 29.970314 47.288358
2003-04-24 05:14:57 51°13.49 2°51.77 -999 3.39866 29.976869 47.895127
2003-04-24 05:15:01 51°13.49 2°51.75 -999 3.397607 29.967224 48.670443
2003-04-24 05:15:06 51°13.48 2°51.72 -999 3.398765 29.978553 49.9514
2003-04-24 05:15:11 51°13.47 2°51.69 -999 3.397501 29.966848 51.13123
2003-04-24 05:15:17 51°13.46 2°51.66 -999 3.397396 29.968434 52.344768
2003-04-24 05:15:21 51°13.45 2°51.64 -999 3.397396 29.968434 52.344768
2003-04-24 05:15:27 51°13.44 2°51.61 -999 3.394868 29.947637 54.569589
2003-04-24 05:15:33 51°13.43 2°51.58 -999 3.395395 29.956057 56.389896
2003-04-24 05:15:36 51°13.43 2°51.57 -999 3.396132 29.967194 58.41246
2003-04-24 05:15:41 51°13.42 2°51.54 -999 3.396448 29.970286 59.55858
2003-04-24 05:15:47 51°13.41 2°51.51 -999 3.396448 29.976177 61.378888
2003-04-24 05:15:51 51°13.4 2°51.49 -999 3.396448 29.976177 61.378888
2003-04-24 05:15:57 51°13.39 2°51.46 -999 3.395184 29.965774 63.131777
2003-04-24 05:16:01 51°13.39 2°51.44 -999 3.395816 29.973922 64.412734
2003-04-24 05:16:07 51°13.38 2°51.41 -999 3.395816 29.973922 66.030785
2003-04-24 05:16:11 51°13.37 2°51.39 -999 3.395606 29.97317 67.042067
2003-04-24 05:16:17 51°13.36 2°51.36 -999 3.395816 29.975231 67.615127
2003-04-24 05:16:21 51°13.35 2°51.34 -999 3.395816 29.975231 67.615127
2003-04-24 05:16:27 51°13.34 2°51.32 -999 3.395395 29.972418 68.55899
2003-04-24 05:16:31 51°13.33 2°51.3 -999 3.396238 29.979354 68.356734
2003-04-24 05:16:37 51°13.32 2°51.27 -999 3.392762 29.944688 68.323024
2003-04-24 05:16:41 51°13.31 2°51.25 -999 3.394342 29.962111 68.491571
2003-04-24 05:16:47 51°13.3 2°51.22 -999 3.394026 29.959673 68.289315
2003-04-24 05:16:51 51°13.3 2°51.2 -999 3.394026 29.959673 68.289315
2003-04-24 05:16:57 51°13.28 2°51.17 -999 3.39392 29.957988 68.457862
2003-04-24 05:17:01 51°13.28 2°51.15 -999 3.392972 29.949366 68.424153
2003-04-24 05:17:07 51°13.27 2°51.12 -999 3.393499 29.951248 68.390443
2003-04-24 05:17:11 51°13.26 2°51.1 -999 3.392656 29.946274 68.457862
2003-04-24 05:17:17 51°13.25 2°51.07 -999 3.39213 29.941121 67.547708
2003-04-24 05:17:23 51°13.24 2°51.04 -999 3.39213 29.941121 67.547708
2003-04-24 05:17:27 51°13.23 2°51.03 -999 3.3876 29.894849 66.199332
2003-04-24 05:17:31 51°13.22 2°51.01 -999 3.388127 29.900001 65.120631
2003-04-24 05:17:37 51°13.21 2°50.98 -999 3.388443 29.902439 63.974512
2003-04-24 05:17:41 51°13.2 2°50.96 -999 3.391708 29.931767 62.862101
2003-04-24 05:17:46 51°13.19 2°50.93 -999 3.391498 29.928399 61.951947
2003-04-24 05:17:51 51°13.18 2°50.91 -999 3.391498 29.928399 61.951947
2003-04-24 05:17:57 51°13.17 2°50.88 -999 3.393183 29.944231 60.569862
2003-04-24 05:18:01 51°13.16 2°50.86 -999 3.391182 29.921386 59.625999
2003-04-24 05:18:06 51°13.16 2°50.84 -999 3.389918 29.909677 59.120358
2003-04-24 05:18:11 51°13.15 2°50.81 -999 3.390339 29.912491 57.670853
2003-04-24 05:18:17 51°13.14 2°50.78 -999 3.394025 29.947896 56.962956
2003-04-24 05:18:21 51°13.13 2°50.76 -999 3.394025 29.947896 56.962956
2003-04-24 05:18:27 51°13.12 2°50.74 -999 3.393709 29.942843 56.423606
2003-04-24 05:18:33 51°13.11 2°50.71 -999 3.393499 29.940129 55.749418
2003-04-24 05:18:37 51°13.1 2°50.69 -999 3.39076 29.913346 54.46846
2003-04-24 05:18:41 51°13.09 2°50.67 -999 3.392761 29.932264 53.221212
2003-04-24 05:18:47 51°13.08 2°50.64 -999 3.391497 29.92121 51.636871
2003-04-24 05:18:51 51°13.07 2°50.62 -999 3.391497 29.92121 51.636871
2003-04-24 05:18:57 51°13.06 2°50.59 -999 3.389602 29.902015 50.119947
2003-04-24 05:19:03 51°13.05 2°50.56 -999 3.390865 29.912416 48.603024
2003-04-24 05:19:07 51°13.04 2°50.54 -999 3.390339 29.905961 47.18723
2003-04-24 05:19:11 51°13.04 2°50.52 -999 3.389917 29.901188 45.872563
2003-04-24 05:19:17 51°13.03 2°50.49 -999 3.392445 29.925253 44.793862
2003-04-24 05:19:21 51°13.02 2°50.47 -999 3.392445 29.925253 44.793862
2003-04-24 05:19:27 51°13.01 2°50.44 -999 3.387811 29.881896 44.288221
2003-04-24 05:19:31 51°13 2°50.42 -999 3.391813 29.919727 43.681452
2003-04-24 05:19:37 51°12.99 2°50.39 -999 3.388443 29.886118 44.018546
2003-04-24 05:19:41 51°12.98 2°50.38 -999 3.392235 29.921234 44.085965
2003-04-24 05:19:47 51°12.97 2°50.35 -999 3.390971 29.906917 44.456768
2003-04-24 05:19:51 51°12.96 2°50.33 -999 3.390971 29.906917 44.456768
2003-04-24 05:19:57 51°12.95 2°50.3 -999 3.388127 29.878462 44.9287
2003-04-24 05:20:01 51°12.95 2°50.28 -999 3.388443 29.881551 45.232084
2003-04-24 05:20:07 51°12.93 2°50.25 -999 3.392972 29.925177 45.602888
2003-04-24 05:20:13 51°12.92 2°50.22 -999 3.388548 29.881276 46.344494
2003-04-24 05:20:17 51°12.92 2°50.2 -999 3.388969 29.884742 46.984973
2003-04-24 05:20:21 51°12.91 2°50.18 -999 3.388969 29.884742 46.984973
2003-04-24 05:20:27 51°12.9 2°50.15 -999 3.391813 29.911238 47.793999
2003-04-24 05:20:31 51°12.89 2°50.14 -999 3.392867 29.920882 47.760289
2003-04-24 05:20:37 51°12.88 2°50.11 -999 3.390971 29.901042 47.72658
2003-04-24 05:20:41 51°12.87 2°50.09 -999 3.393709 29.926507 47.625452
2003-04-24 05:20:47 51°12.86 2°50.06 -999 3.3955 29.944665 47.861418
2003-04-24 05:20:51 51°12.85 2°50.04 -999 3.3955 29.944665 47.861418
2003-04-24 05:20:57 51°12.84 2°50.01 -999 3.3955 29.942705 47.322067
2003-04-24 05:21:01 51°12.84 2°49.99 -999 3.392867 29.915658 47.119811
2003-04-24 05:21:07 51°12.82 2°49.96 -999 3.390655 29.892735 47.692871
2003-04-24 05:21:11 51°12.82 2°49.94 -999 3.395816 29.943834 47.355777
2003-04-24 05:21:17 51°12.81 2°49.92 -999 3.396448 29.948705 47.018683
2003-04-24 05:21:21 51°12.8 2°49.9 -999 3.396448 29.948705 47.018683
2003-04-24 05:21:27 51°12.79 2°49.87 -999 3.390865 29.893489 46.782717
2003-04-24 05:21:31 51°12.78 2°49.85 -999 3.395816 29.942527 46.681589
2003-04-24 05:21:37 51°12.77 2°49.82 -999 3.397712 29.958446 46.546751
2003-04-24 05:21:41 51°12.76 2°49.8 -999 3.398344 29.96397 46.0074
2003-04-24 05:21:47 51°12.75 2°49.77 -999 3.398871 29.972388 45.602888
2003-04-24 05:21:51 51°12.74 2°49.75 -999 3.398871 29.972388 45.602888
2003-04-24 05:21:57 51°12.73 2°49.72 -999 3.398028 29.962842 45.569178
2003-04-24 05:22:03 51°12.72 2°49.69 -999 3.399187 29.977439 45.46805
2003-04-24 05:22:07 51°12.71 2°49.68 -999 3.399713 29.982588 45.569178
2003-04-24 05:22:11 51°12.71 2°49.66 -999 3.399924 29.984648 45.501759
2003-04-24 05:22:17 51°12.7 2°49.63 -999 3.399397 29.980807 45.973691
2003-04-24 05:22:21 51°12.69 2°49.61 -999 3.399397 29.980807 45.973691
2003-04-24 05:22:27 51°12.68 2°49.58 -999 3.400135 29.986708 45.366922
2003-04-24 05:22:31 51°12.67 2°49.56 -999 3.399397 29.977536 45.46805
2003-04-24 05:22:37 51°12.66 2°49.53 -999 3.398871 29.973042 44.962409
2003-04-24 05:22:41 51°12.65 2°49.51 -999 3.399081 29.973793 44.490477
2003-04-24 05:22:47 51°12.64 2°49.48 -999 3.399608 29.981559 44.052255
2003-04-24 05:22:51 51°12.63 2°49.46 -999 3.399608 29.981559 44.052255
2003-04-24 05:22:57 51°12.62 2°49.43 -999 3.399081 29.978372 43.883708
2003-04-24 05:23:01 51°12.62 2°49.41 -999 3.399187 29.980056 43.883708
2003-04-24 05:23:07 51°12.61 2°49.38 -999 3.399081 29.979026 43.984836
2003-04-24 05:23:13 51°12.6 2°49.35 -999 3.398555 29.976493 43.715161
2003-04-24 05:23:17 51°12.59 2°49.33 -999 3.397712 29.968908 43.984836
2003-04-24 05:23:21 51°12.58 2°49.31 -999 3.397712 29.968908 43.984836
2003-04-24 05:23:27 51°12.57 2°49.28 -999 3.397185 29.967028 43.984836
2003-04-24 05:23:31 51°12.56 2°49.26 -999 3.397396 29.966472 43.849999
2003-04-24 05:23:37 51°12.55 2°49.23 -999 3.396764 29.960946 44.153383
2003-04-24 05:23:42 51°12.54 2°49.21 -999 3.39708 29.964036 43.512905
2003-04-24 05:23:47 51°12.54 2°49.18 -999 3.396869 29.96263 43.479195
2003-04-24 05:23:51 51°12.53 2°49.16 -999 3.396869 29.96263 43.479195
2003-04-24 05:23:57 51°12.52 2°49.13 -999 3.396869 29.963938 44.187093
2003-04-24 05:24:01 51°12.51 2°49.12 -999 3.397396 29.969088 44.760153
2003-04-24 05:24:07 51°12.5 2°49.09 -999 3.396132 29.958036 45.602888
2003-04-24 05:24:11 51°12.49 2°49.07 -999 3.395921 29.959246 46.411913
2003-04-24 05:24:17 51°12.48 2°49.04 -999 3.396132 29.960652 46.58046
2003-04-24 05:24:21 51°12.48 2°49.02 -999 3.396132 29.960652 46.58046
2003-04-24 05:24:27 51°12.47 2°48.99 -999 3.395395 29.956057 46.546751
2003-04-24 05:24:31 51°12.46 2°48.97 -999 3.395605 29.957463 45.973691
2003-04-24 05:24:37 51°12.45 2°48.94 -999 3.395289 29.956989 44.996118
2003-04-24 05:24:41 51°12.44 2°48.92 -999 3.396553 29.968698 43.681452
2003-04-24 05:24:47 51°12.43 2°48.89 -999 3.395605 29.959426 43.007264
2003-04-24 05:24:53 51°12.42 2°48.86 -999 3.395605 29.959426 43.007264
2003-04-24 05:24:57 51°12.41 2°48.84 -999 3.396237 29.966262 41.422922
2003-04-24 05:25:01 51°12.41 2°48.82 -999 3.396975 29.974128 40.243093
2003-04-24 05:25:07 51°12.4 2°48.79 -999 3.397501 29.97928 39.198101
2003-04-24 05:25:11 51°12.39 2°48.77 -999 3.398555 29.992204 38.085691
2003-04-24 05:25:17 51°12.38 2°48.74 -999 3.399081 29.998667 37.377794
2003-04-24 05:25:21 51°12.37 2°48.72 -999 3.399081 29.998667 37.377794
2003-04-24 05:25:27 51°12.36 2°48.69 -999 3.399398 30.001759 36.737315
2003-04-24 05:25:31 51°12.36 2°48.67 -999 3.40024 30.01197 36.535059
2003-04-24 05:25:37 51°12.34 2°48.64 -999 3.399292 30.004005 35.860871
2003-04-24 05:25:41 51°12.34 2°48.62 -999 3.401083 30.024807 35.523777
2003-04-24 05:25:47 51°12.33 2°48.59 -999 3.40003 30.015809 34.984426
2003-04-24 05:25:51 51°12.32 2°48.57 -999 3.40003 30.015809 34.984426
2003-04-24 05:25:57 51°12.31 2°48.54 -999 3.399608 30.011686 35.89458
2003-04-24 05:26:01 51°12.3 2°48.52 -999 3.400662 30.021339 36.535059
2003-04-24 05:26:07 51°12.29 2°48.49 -999 3.400346 30.015623 37.377794
2003-04-24 05:26:11 51°12.29 2°48.47 -999 3.40003 30.008598 38.220529
2003-04-24 05:26:17 51°12.27 2°48.44 -999 3.400451 30.01141 39.26552
2003-04-24 05:26:21 51°12.27 2°48.43 -999 3.400451 30.01141 39.26552
2003-04-24 05:26:27 51°12.26 2°48.4 -999 3.399713 30.002885 40.243093
2003-04-24 05:26:33 51°12.25 2°48.37 -999 3.400135 30.005697 40.748734
2003-04-24 05:26:37 51°12.24 2°48.35 -999 3.400135 30.003731 40.715024
2003-04-24 05:26:41 51°12.23 2°48.33 -999 3.399503 29.996894 40.344221
2003-04-24 05:26:47 51°12.22 2°48.3 -999 3.402031 30.020314 40.344221
2003-04-24 05:26:51 51°12.22 2°48.28 -999 3.402031 30.020314 40.344221
2003-04-24 05:26:57 51°12.2 2°48.25 -999 3.401399 30.014131 40.108255
2003-04-24 05:27:01 51°12.2 2°48.23 -999 3.402557 30.026122 39.29923
2003-04-24 05:27:07 51°12.19 2°48.2 -999 3.403189 30.033617 38.962136
2003-04-24 05:27:11 51°12.18 2°48.18 -999 3.404032 30.041862 38.658751
2003-04-24 05:27:17 51°12.17 2°48.15 -999 3.404664 30.04739 38.018272
2003-04-24 05:27:21 51°12.16 2°48.13 -999 3.404664 30.04739 38.018272
2003-04-24 05:27:27 51°12.15 2°48.1 -999 3.404032 30.044486 37.445212
2003-04-24 05:27:31 51°12.15 2°48.08 -999 3.405085 30.053481 37.782306
2003-04-24 05:27:37 51°12.14 2°48.05 -999 3.404243 30.044579 37.546341
2003-04-24 05:27:41 51°12.13 2°48.03 -999 3.404664 30.050671 36.939571
2003-04-24 05:27:47 51°12.12 2°48 -999 3.405296 30.056855 36.804734
2003-04-24 05:27:53 51°12.11 2°47.97 -999 3.405296 30.056855 36.804734
2003-04-24 05:27:57 51°12.1 2°47.95 -999 3.404664 30.049358 36.299093
2003-04-24 05:28:01 51°12.09 2°47.93 -999 3.404769 30.049077 36.096836
2003-04-24 05:28:07 51°12.08 2°47.9 -999 3.403821 30.039801 35.961999
2003-04-24 05:28:11 51°12.08 2°47.88 -999 3.405401 30.054604 35.692324
2003-04-24 05:28:17 51°12.06 2°47.86 -999 3.405296 30.05423 35.860871
2003-04-24 05:28:23 51°12.05 2°47.83 -999 3.405296 30.05423 35.860871
2003-04-24 05:28:27 51°12.05 2°47.81 -999 3.405191 30.053856 35.961999
2003-04-24 05:28:31 51°12.04 2°47.79 -999 3.404875 30.050107 35.827161
2003-04-24 05:28:37 51°12.03 2°47.76 -999 3.404875 30.052732 35.32152
2003-04-24 05:28:41 51°12.02 2°47.74 -999 3.405507 30.058917 35.32152
2003-04-24 05:28:47 51°12.01 2°47.71 -999 3.405296 30.060138 35.523777
2003-04-24 05:28:51 51°12.01 2°47.69 -999 3.405296 30.060138 35.523777
2003-04-24 05:28:57 51°11.99 2°47.66 -999 3.405718 30.067545 35.186683
2003-04-24 05:29:01 51°11.99 2°47.64 -999 3.406771 30.077199 35.523777
2003-04-24 05:29:07 51°11.98 2°47.61 -999 3.407298 30.084325 35.523777
2003-04-24 05:29:11 51°11.97 2°47.59 -999 3.408667 30.095101 35.254101
2003-04-24 05:29:17 51°11.96 2°47.56 -999 3.408562 30.094728 35.152973
2003-04-24 05:29:21 51°11.95 2°47.54 -999 3.408562 30.094728 35.152973
2003-04-24 05:29:27 51°11.94 2°47.51 -999 3.408772 30.097447 35.018136
2003-04-24 05:29:33 51°11.93 2°47.48 -999 3.409404 30.105607 35.152973
2003-04-24 05:29:37 51°11.93 2°47.46 -999 3.409931 30.109448 35.287811
2003-04-24 05:29:41 51°11.92 2°47.44 -999 3.409826 30.108417 35.961999
2003-04-24 05:29:47 51°11.91 2°47.41 -999 3.410142 30.112169 36.164255
2003-04-24 05:29:51 51°11.9 2°47.39 -999 3.410142 30.112169 36.164255
2003-04-24 05:29:57 51°11.89 2°47.36 -999 3.40951 30.107296 37.00699
2003-04-24 05:30:01 51°11.89 2°47.34 -999 3.409615 30.108328 37.883435
2003-04-24 05:30:07 51°11.88 2°47.31 -999 3.410036 30.113769 39.29923
2003-04-24 05:30:11 51°11.87 2°47.29 -999 3.410142 30.1148 40.748734
2003-04-24 05:30:17 51°11.86 2°47.26 -999 3.410668 30.117983 41.894853
2003-04-24 05:30:21 51°11.85 2°47.24 -999 3.410668 30.117983 41.894853
2003-04-24 05:30:27 51°11.84 2°47.21 -999 3.410247 30.115832 42.602751
2003-04-24 05:30:31 51°11.83 2°47.2 -999 3.410668 30.120615 43.512905
2003-04-24 05:30:37 51°11.82 2°47.17 -999 3.410563 30.119584 44.625315
2003-04-24 05:30:43 51°11.81 2°47.14 -999 3.410458 30.121843 44.861281
2003-04-24 05:30:47 51°11.81 2°47.12 -999 3.410563 30.122216 45.737725
2003-04-24 05:30:51 51°11.8 2°47.1 -999 3.410563 30.122216 45.737725
2003-04-24 05:30:57 51°11.79 2°47.07 -999 3.410563 30.124191 45.939982
2003-04-24 05:31:01 51°11.78 2°47.05 -999 3.410036 30.115085 46.411913
2003-04-24 05:31:07 51°11.77 2°47.02 -999 3.410774 30.126254 47.456905
2003-04-24 05:31:13 51°11.76 2°46.99 -999 3.41109 30.130007 47.760289
2003-04-24 05:31:17 51°11.76 2°46.97 -999 3.411827 30.137229 48.771571
2003-04-24 05:31:21 51°11.75 2°46.95 -999 3.411827 30.137229 48.771571
2003-04-24 05:31:27 51°11.74 2°46.92 -999 3.411195 30.131697 50.086238
2003-04-24 05:31:31 51°11.74 2°46.9 -999 3.412565 30.146427 52.007674
2003-04-24 05:31:37 51°11.73 2°46.87 -999 3.413302 30.156286 53.389759
2003-04-24 05:31:41 51°11.72 2°46.85 -999 3.41425 30.165573 55.412324
2003-04-24 05:31:47 51°11.71 2°46.81 -999 3.414882 30.172425 56.524734
2003-04-24 05:31:51 51°11.71 2°46.79 -999 3.414882 30.172425 56.524734
2003-04-24 05:31:57 51°11.7 2°46.76 -999 3.416041 30.185756 57.536016
2003-04-24 05:32:01 51°11.69 2°46.74 -999 3.416567 30.192897 58.075366
2003-04-24 05:32:07 51°11.68 2°46.71 -999 3.417305 30.201443 57.704563
2003-04-24 05:32:11 51°11.68 2°46.69 -999 3.419201 30.220686 57.906819
2003-04-24 05:32:17 51°11.67 2°46.66 -999 3.42057 30.23543 58.614717
2003-04-24 05:32:23 51°11.66 2°46.63 -999 3.42057 30.23543 58.614717
2003-04-24 05:32:27 51°11.65 2°46.61 -999 3.420886 30.240511 58.243913
2003-04-24 05:32:31 51°11.65 2°46.59 -999 3.42215 30.253564 58.345042
2003-04-24 05:32:37 51°11.64 2°46.56 -999 3.422572 30.257695 58.816973
2003-04-24 05:32:41 51°11.63 2°46.54 -999 3.423309 30.267571 58.715845
2003-04-24 05:32:47 51°11.63 2°46.51 -999 3.424257 30.272895 57.906819
2003-04-24 05:32:51 51°11.62 2°46.49 -999 3.424257 30.272895 57.906819
2003-04-24 05:32:57 51°11.61 2°46.46 -999 3.4251 30.286455 56.962956
2003-04-24 05:33:03 51°11.6 2°46.43 -999 3.425837 30.294348 56.457315
2003-04-24 05:33:07 51°11.6 2°46.41 -999 3.427207 30.308441 55.04152
2003-04-24 05:33:11 51°11.59 2°46.38 -999 3.427733 30.314933 53.92911
2003-04-24 05:33:17 51°11.59 2°46.35 -999 3.427944 30.31501 53.120084
2003-04-24 05:33:21 51°11.58 2°46.33 -999 3.427944 30.31501 53.120084
2003-04-24 05:33:27 51°11.57 2°46.3 -999 3.428576 30.322535 52.176221
2003-04-24 05:33:31 51°11.57 2°46.28 -999 3.428997 30.326668 51.333486
2003-04-24 05:33:37 51°11.56 2°46.25 -999 3.429524 30.330508 50.827845
2003-04-24 05:33:41 51°11.55 2°46.23 -999 3.430472 30.339807 50.153657
2003-04-24 05:33:47 51°11.55 2°46.2 -999 3.430683 30.340546 49.580597
2003-04-24 05:33:51 51°11.54 2°46.18 -999 3.430683 30.340546 49.580597
2003-04-24 05:33:57 51°11.53 2°46.14 -999 3.430578 30.34084 49.142375
2003-04-24 05:34:03 51°11.52 2°46.11 -999 3.43142 30.349106 48.29964
2003-04-24 05:34:07 51°11.52 2°46.09 -999 3.431104 30.347334 47.72658
2003-04-24 05:34:13 51°11.51 2°46.06 -999 3.431315 30.3494 47.827708
2003-04-24 05:34:17 51°11.51 2°46.04 -999 3.43142 30.34977 47.524324
2003-04-24 05:34:21 51°11.5 2°46.02 -999 3.43142 30.34977 47.524324
2003-04-24 05:34:27 51°11.49 2°45.99 -999 3.431315 30.348736 47.355777
2003-04-24 05:34:31 51°11.49 2°45.97 -999 3.431104 30.345343 47.322067
2003-04-24 05:34:37 51°11.48 2°45.93 -999 3.429735 30.334564 47.322067
2003-04-24 05:34:43 51°11.47 2°45.9 -999 3.431104 30.348661 46.883845
2003-04-24 05:34:47 51°11.47 2°45.88 -999 3.430999 30.348955 46.917554
2003-04-24 05:34:51 51°11.46 2°45.86 -999 3.430999 30.348955 46.917554
2003-04-24 05:34:57 51°11.45 2°45.83 -999 3.430472 30.345116 46.108529
2003-04-24 05:35:01 51°11.45 2°45.81 -999 3.430472 30.343788 45.939982
2003-04-24 05:35:07 51°11.44 2°45.78 -999 3.430472 30.341797 44.89499
2003-04-24 05:35:11 51°11.43 2°45.76 -999 3.430262 30.342385 44.052255
2003-04-24 05:35:17 51°11.43 2°45.72 -999 3.430472 30.343788 43.074683
2003-04-24 05:35:23 51°11.42 2°45.69 -999 3.430472 30.343788 43.074683
2003-04-24 05:35:27 51°11.41 2°45.67 -999 3.43121 30.348367 42.164529
2003-04-24 05:35:31 51°11.41 2°45.65 -999 3.430894 30.347258 41.052118
2003-04-24 05:35:37 51°11.4 2°45.62 -999 3.431736 30.357517 40.715024
2003-04-24 05:35:43 51°11.39 2°45.59 -999 3.431104 30.350653 39.29923
2003-04-24 05:35:47 51°11.39 2°45.57 -999 3.431736 30.358181 38.254238
2003-04-24 05:35:53 51°11.38 2°45.53 -999 3.431736 30.358181 38.254238
2003-04-24 05:35:57 51°11.38 2°45.51 -999 3.431736 30.362831 38.422785
2003-04-24 05:36:01 51°11.37 2°45.49 -999 3.432474 30.370731 38.15311
2003-04-24 05:36:07 51°11.37 2°45.46 -999 3.433527 30.381069 37.209247
2003-04-24 05:36:11 51°11.36 2°45.44 -999 3.433633 30.386092 36.332802
2003-04-24 05:36:17 51°11.35 2°45.4 -999 3.432263 30.374645 35.692324
2003-04-24 05:36:21 51°11.35 2°45.38 -999 3.432263 30.374645 35.692324
2003-04-24 05:36:27 51°11.34 2°45.35 -999 3.43437 30.39732 34.546204
2003-04-24 05:36:33 51°11.34 2°45.32 -999 3.435845 30.414461 34.512494
2003-04-24 05:36:37 51°11.34 2°45.29 -999 3.436372 30.420298 34.310238
2003-04-24 05:36:41 51°11.33 2°45.27 -999 3.437741 30.435743 34.377657
2003-04-24 05:36:47 51°11.33 2°45.24 -999 3.439005 30.44749 34.040563
2003-04-24 05:36:51 51°11.32 2°45.22 -999 3.439005 30.44749 34.040563
2003-04-24 05:36:57 51°11.32 2°45.18 -999 3.439848 30.458433 33.973144
2003-04-24 05:37:03 51°11.32 2°45.15 -999 3.44048 30.465975 33.703469
2003-04-24 05:37:07 51°11.31 2°45.13 -999 3.441428 30.477289 34.006853
2003-04-24 05:37:11 51°11.31 2°45.11 -999 3.442481 30.488305 33.939435
2003-04-24 05:37:17 51°11.31 2°45.07 -999 3.441639 30.480026 34.512494
2003-04-24 05:37:21 51°11.3 2°45.05 -999 3.441639 30.480026 34.512494
2003-04-24 05:37:27 51°11.3 2°45.02 -999 3.443956 30.504129 34.681042
2003-04-24 05:37:31 51°11.3 2°44.99 -999 3.443113 30.496517 34.883298
2003-04-24 05:37:37 51°11.29 2°44.96 -999 3.446063 30.525499 35.726033
2003-04-24 05:37:43 51°11.29 2°44.93 -999 3.446695 30.532378 35.89458
2003-04-24 05:37:47 51°11.29 2°44.91 -999 3.447959 30.5448 35.624905
2003-04-24 05:37:51 51°11.28 2°44.88 -999 3.447959 30.5448 35.624905
2003-04-24 05:37:57 51°11.28 2°44.85 -999 3.448591 30.551681 35.726033
2003-04-24 05:38:01 51°11.28 2°44.83 -999 3.449539 30.560329 35.692324
2003-04-24 05:38:07 51°11.27 2°44.79 -999 3.44975 30.563739 36.299093
2003-04-24 05:38:13 51°11.27 2°44.76 -999 3.450593 30.572691 35.726033
2003-04-24 05:38:17 51°11.27 2°44.74 -999 3.45112 30.579877 35.692324
2003-04-24 05:38:21 51°11.26 2°44.72 -999 3.45112 30.579877 35.692324
2003-04-24 05:38:27 51°11.26 2°44.68 -999 3.450488 30.574334 35.490067
2003-04-24 05:38:31 51°11.26 2°44.66 -999 3.449645 30.567389 35.456358
2003-04-24 05:38:37 51°11.26 2°44.63 -999 3.451857 30.587126 34.984426
2003-04-24 05:38:42 51°11.25 2°44.6 -999 3.452173 30.593583 34.546204
2003-04-24 05:38:46 51°11.25 2°44.57 -999 3.45112 30.585907 33.602341
2003-04-24 05:38:53 51°11.25 2°44.54 -999 3.45112 30.585907 33.602341
2003-04-24 05:38:57 51°11.24 2°44.51 -999 3.452173 30.595594 32.692187
2003-04-24 05:39:01 51°11.24 2°44.49 -999 3.452911 30.604855 31.815742
2003-04-24 05:39:06 51°11.24 2°44.46 -999 3.453437 30.613388 30.737042
2003-04-24 05:39:10 51°11.23 2°44.44 -999 3.454385 30.624054 30.399947
2003-04-24 05:39:17 51°11.23 2°44.4 -999 3.453964 30.61991 29.894306
2003-04-24 05:39:22 51°11.23 2°44.37 -999 3.453964 30.61991 29.894306
2003-04-24 05:39:26 51°11.23 2°44.35 -999 3.453859 30.621558 29.253828
2003-04-24 05:39:31 51°11.22 2°44.32 -999 3.454385 30.62741 28.377383
2003-04-24 05:39:37 51°11.22 2°44.29 -999 3.453753 30.620522 27.736905
2003-04-24 05:39:41 51°11.22 2°44.27 -999 3.451541 30.598764 27.264973
2003-04-24 05:39:46 51°11.21 2°44.24 -999 3.453332 30.61839 26.523366
2003-04-24 05:39:53 51°11.21 2°44.2 -999 3.453332 30.61839 26.523366
2003-04-24 05:39:57 51°11.21 2°44.18 -999 3.453332 30.619732 26.118853
2003-04-24 05:40:02 51°11.2 2°44.15 -999 3.452805 30.614551 25.849178
2003-04-24 05:40:06 51°11.2 2°44.13 -999 3.452489 30.612114 25.680631
2003-04-24 05:40:10 51°11.2 2°44.1 -999 3.451541 30.602788 25.646922
2003-04-24 05:40:17 51°11.2 2°44.07 -999 3.451963 30.608945 25.242409
2003-04-24 05:40:22 51°11.19 2°44.04 -999 3.451963 30.608945 25.242409
2003-04-24 05:40:26 51°11.19 2°44.01 -999 3.452279 30.612054 25.377247
2003-04-24 05:40:33 51°11.19 2°43.98 -999 3.452805 30.617907 25.343537
2003-04-24 05:40:37 51°11.19 2°43.95 -999 3.454386 30.635467 25.242409
2003-04-24 05:40:41 51°11.18 2°43.93 -999 3.454702 30.638576 25.410956
2003-04-24 05:40:46 51°11.18 2°43.9 -999 3.454386 30.638153 25.309828
2003-04-24 05:40:50 51°11.18 2°43.88 -999 3.454386 30.638153 25.309828
2003-04-24 05:40:57 51°11.18 2°43.84 -999 3.455334 30.648155 25.2087
2003-04-24 05:41:01 51°11.17 2°43.82 -999 3.455334 30.649498 25.073862
2003-04-24 05:41:06 51°11.17 2°43.79 -999 3.454912 30.646696 25.276118
2003-04-24 05:41:13 51°11.17 2°43.75 -999 3.452911 30.625656 25.242409
2003-04-24 05:41:17 51°11.17 2°43.73 -999 3.455966 30.657735 25.040153
2003-04-24 05:41:21 51°11.16 2°43.71 -999 3.455966 30.657735 25.040153
2003-04-24 05:41:26 51°11.16 2°43.68 -999 3.454386 30.6442 25.309828
2003-04-24 05:41:33 51°11.16 2°43.64 -999 3.455439 30.653224 25.107571
2003-04-24 05:41:37 51°11.16 2°43.62 -999 3.455123 30.651457 25.006443
2003-04-24 05:41:41 51°11.15 2°43.6 -999 3.456703 30.668355 25.276118
2003-04-24 05:41:46 51°11.15 2°43.57 -999 3.455228 30.654511 25.17499
2003-04-24 05:41:50 51°11.15 2°43.55 -999 3.455228 30.654511 25.17499
2003-04-24 05:41:57 51°11.14 2°43.51 -999 3.457125 30.673848 25.073862
2003-04-24 05:42:01 51°11.14 2°43.48 -999 3.458283 30.687275 25.141281
2003-04-24 05:42:06 51°11.14 2°43.46 -999 3.45881 30.693133 25.107571
2003-04-24 05:42:13 51°11.14 2°43.42 -999 3.459021 30.693861 24.972734
2003-04-24 05:42:17 51°11.13 2°43.4 -999 3.459653 30.702104 24.60193
2003-04-24 05:42:21 51°11.13 2°43.37 -999 3.459653 30.702104 24.60193
2003-04-24 05:42:26 51°11.13 2°43.35 -999 3.45881 30.693807 24.264836
2003-04-24 05:42:30 51°11.13 2°43.32 -999 3.461338 30.718027 23.995161
2003-04-24 05:42:37 51°11.12 2°43.28 -999 3.461654 30.721813 23.725486
2003-04-24 05:42:41 51°11.12 2°43.26 -999 3.463024 30.734624 23.017589
2003-04-24 05:42:46 51°11.12 2°43.23 -999 3.463024 30.735298 23.017589
2003-04-24 05:42:50 51°11.12 2°43.21 -999 3.463024 30.735298 23.017589
2003-04-24 05:42:57 51°11.12 2°43.17 -999 3.462181 30.727673 22.781623
2003-04-24 05:43:01 51°11.11 2°43.15 -999 3.465026 30.757033 22.646785
2003-04-24 05:43:06 51°11.11 2°43.12 -999 3.463235 30.738721 22.37711
2003-04-24 05:43:13 51°11.11 2°43.08 -999 3.466079 30.767409 22.141144
2003-04-24 05:43:17 51°11.11 2°43.06 -999 3.467132 30.776435 21.837759
2003-04-24 05:43:22 51°11.11 2°43.03 -999 3.467132 30.776435 21.837759
2003-04-24 05:43:26 51°11.1 2°43.01 -999 3.467343 30.781887 21.80405
2003-04-24 05:43:30 51°11.1 2°42.99 -999 3.467765 30.786713 21.096153
2003-04-24 05:43:36 51°11.1 2°42.95 -999 3.468291 30.793929 21.365828
2003-04-24 05:43:41 51°11.1 2°42.92 -999 3.468713 30.797404 21.129862
2003-04-24 05:43:46 51°11.1 2°42.9 -999 3.469029 30.80187 21.028734
2003-04-24 05:43:50 51°11.1 2°42.87 -999 3.469029 30.80187 21.028734
2003-04-24 05:43:57 51°11.09 2°42.83 -999 3.469661 30.810801 20.860187
2003-04-24 05:44:01 51°11.09 2°42.81 -999 3.470609 30.82082 20.826477
2003-04-24 05:44:06 51°11.09 2°42.78 -999 3.470925 30.825964 21.028734
2003-04-24 05:44:10 51°11.09 2°42.76 -999 3.471663 30.836615 21.669212
2003-04-24 05:44:17 51°11.09 2°42.72 -999 3.471557 30.836931 22.242272
2003-04-24 05:44:21 51°11.08 2°42.7 -999 3.471557 30.836931 22.242272
2003-04-24 05:44:26 51°11.08 2°42.67 -999 3.472295 30.845553 23.253554
2003-04-24 05:44:33 51°11.08 2°42.63 -999 3.472611 30.852055 24.939024
2003-04-24 05:44:37 51°11.08 2°42.6 -999 3.472716 30.853771 26.152563
2003-04-24 05:44:41 51°11.08 2°42.58 -999 3.473032 30.860952 27.534648
2003-04-24 05:44:46 51°11.08 2°42.55 -999 3.472716 30.861902 28.849315
2003-04-24 05:44:50 51°11.08 2°42.53 -999 3.472716 30.861902 28.849315
2003-04-24 05:44:57 51°11.07 2°42.5 -999 3.473032 30.868408 31.074136
2003-04-24 05:45:02 51°11.07 2°42.48 -999 3.473243 30.871842 34.74846
2003-04-24 05:45:06 51°11.07 2°42.46 -999 3.472611 30.874424 39.568905
2003-04-24 05:45:10 51°11.07 2°42.44 -999 3.473349 30.887128 45.670306
2003-04-24 05:45:17 51°11.07 2°42.42 -999 3.473559 30.895997 51.839127
2003-04-24 05:45:21 51°11.08 2°42.4 -999 3.473559 30.895997 51.839127
2003-04-24 05:45:26 51°11.08 2°42.39 -999 3.473033 30.898949 57.131503
2003-04-24 05:45:30 51°11.08 2°42.37 -999 3.472506 30.901902 58.783264
2003-04-24 05:45:37 51°11.08 2°42.35 -999 3.47219 30.906259 58.98552
2003-04-24 05:45:41 51°11.08 2°42.34 -999 3.472296 30.91138 58.277623
2003-04-24 05:45:46 51°11.08 2°42.33 -999 3.471769 30.908897 56.389896
2003-04-24 05:45:50 51°11.08 2°42.31 -999 3.471769 30.908897 56.389896
2003-04-24 05:45:57 51°11.08 2°42.29 -999 3.471769 30.910938 53.389759
2003-04-24 05:46:01 51°11.08 2°42.28 -999 3.472085 30.91338 50.018819
2003-04-24 05:46:06 51°11.08 2°42.27 -999 3.473244 30.924149 46.58046
2003-04-24 05:46:13 51°11.09 2°42.25 -999 3.473665 30.924229 43.310648
2003-04-24 05:46:17 51°11.09 2°42.24 -999 3.474086 30.926351 40.715024
2003-04-24 05:46:21 51°11.09 2°42.24 -999 3.474086 30.926351 40.715024
2003-04-24 05:46:26 51°11.09 2°42.22 -999 3.475035 30.934356 38.422785
2003-04-24 05:46:30 51°11.09 2°42.22 -999 3.475245 30.933035 36.669896
2003-04-24 05:46:36 51°11.09 2°42.2 -999 3.475034 30.930954 34.883298
2003-04-24 05:46:42 51°11.09 2°42.19 -999 3.47535 30.930674 33.770888
2003-04-24 05:46:46 51°11.09 2°42.19 -999 3.475983 30.935556 32.186546
2003-04-24 05:46:52 51°11.09 2°42.17 -999 3.475983 30.935556 32.186546
2003-04-24 05:46:56 51°11.09 2°42.17 -999 3.475983 30.934195 30.905589
2003-04-24 05:47:00 51°11.08 2°42.16 -999 3.476088 30.934555 29.961725
2003-04-24 05:47:06 51°11.08 2°42.15 -999 3.476299 30.935275 29.220118
2003-04-24 05:47:10 51°11.08 2°42.14 -999 3.476193 30.931514 28.377383
2003-04-24 05:47:16 51°11.08 2°42.13 -999 3.476404 30.932914 27.534648
2003-04-24 05:47:20 51°11.08 2°42.13 -999 3.476404 30.932914 27.534648
2003-04-24 05:47:26 51°11.08 2°42.12 -999 3.476298 30.929154 26.961589
2003-04-24 05:47:30 51°11.08 2°42.11 -999 3.476404 30.931554 26.253691
2003-04-24 05:47:37 51°11.08 2°42.11 -999 3.476088 30.925713 25.646922
2003-04-24 05:47:41 51°11.08 2°42.1 -999 3.476404 30.928154 24.804187
2003-04-24 05:47:47 51°11.08 2°42.09 -999 3.476614 30.930234 24.433383
2003-04-24 05:47:51 51°11.08 2°42.09 -999 3.476614 30.930234 24.433383
2003-04-24 05:47:57 51°11.08 2°42.08 -999 3.476825 30.928914 23.995161
2003-04-24 05:48:01 51°11.08 2°42.08 -999 3.477036 30.933034 23.725486
2003-04-24 05:48:07 51°11.07 2°42.07 -999 3.47693 30.929954 23.152426
2003-04-24 05:48:11 51°11.07 2°42.07 -999 3.477563 30.935515 22.95017
2003-04-24 05:48:17 51°11.07 2°42.07 -999 3.477563 30.936195 22.3434
2003-04-24 05:48:21 51°11.07 2°42.06 -999 3.477563 30.936195 22.3434
2003-04-24 05:48:27 51°11.07 2°42.06 -999 3.477457 30.933795 22.579366
2003-04-24 05:48:31 51°11.07 2°42.06 -999 3.477457 30.932435 21.905178
2003-04-24 05:48:37 51°11.07 2°42.05 -999 3.477668 30.934515 21.871469
2003-04-24 05:48:41 51°11.07 2°42.05 -999 3.478511 30.943515 21.871469
2003-04-24 05:48:47 51°11.07 2°42.05 -999 3.478089 30.939354 21.669212
2003-04-24 05:48:51 51°11.07 2°42.05 -999 3.478089 30.939354 21.669212
2003-04-24 05:48:57 51°11.06 2°42.04 -999 3.478089 30.939354 21.669212
2003-04-24 05:49:01 51°11.06 2°42.04 -999 3.478721 30.945595 21.601794
2003-04-24 05:49:07 51°11.06 2°42.04 -999 3.4783 30.941434 21.197281
2003-04-24 05:49:11 51°11.06 2°42.04 -999 3.477984 30.939675 21.028734
2003-04-24 05:49:17 51°11.06 2°42.04 -999 3.478405 30.944515 21.298409
2003-04-24 05:49:21 51°11.06 2°42.04 -999 3.478405 30.944515 21.298409
2003-04-24 05:49:27 51°11.06 2°42.04 -999 3.478616 30.944555 20.826477
2003-04-24 05:49:31 51°11.06 2°42.04 -999 3.479037 30.952797 20.927606
2003-04-24 05:49:37 51°11.06 2°42.05 -999 3.479143 30.955198 20.860187
2003-04-24 05:49:41 51°11.06 2°42.05 -999 3.47967 30.957677 21.028734
2003-04-24 05:49:47 51°11.07 2°42.05 -999 3.479564 30.958678 20.860187
2003-04-24 05:49:51 51°11.07 2°42.05 -999 3.479564 30.958678 20.860187
2003-04-24 05:49:57 51°11.07 2°42.06 -999 3.479775 30.960078 21.197281
2003-04-24 05:50:01 51°11.07 2°42.06 -999 3.479775 30.96144 21.096153
2003-04-24 05:50:07 51°11.07 2°42.07 -999 3.480302 30.968003 21.197281
2003-04-24 05:50:11 51°11.07 2°42.07 -999 3.481461 30.980809 21.466956
2003-04-24 05:50:17 51°11.08 2°42.07 -999 3.480196 30.969005 21.365828
2003-04-24 05:50:21 51°11.08 2°42.08 -999 3.480196 30.969005 21.365828
2003-04-24 05:50:27 51°11.08 2°42.08 -999 3.480828 30.975929 21.702922
2003-04-24 05:50:31 51°11.08 2°42.09 -999 3.480828 30.977291 21.837759
2003-04-24 05:50:37 51°11.08 2°42.09 -999 3.481039 30.980053 22.545657
2003-04-24 05:50:41 51°11.09 2°42.09 -999 3.481461 30.982853 22.410819
2003-04-24 05:50:47 51°11.09 2°42.1 -999 3.482303 30.991177 22.882751
2003-04-24 05:50:51 51°11.09 2°42.1 -999 3.482303 30.991177 22.882751
2003-04-24 05:50:57 51°11.09 2°42.11 -999 3.481987 30.990781 23.590648
2003-04-24 05:51:01 51°11.09 2°42.11 -999 3.48283 31.001834 24.669349
2003-04-24 05:51:07 51°11.09 2°42.11 -999 3.482514 31.000757 26.2874
2003-04-24 05:51:11 51°11.09 2°42.12 -999 3.483778 31.014611 27.871742
2003-04-24 05:51:17 51°11.1 2°42.12 -999 3.483462 31.016947 29.590922
2003-04-24 05:51:21 51°11.1 2°42.12 -999 3.483462 31.016947 29.590922
2003-04-24 05:51:27 51°11.1 2°42.13 -999 3.483568 31.022083 30.399947
2003-04-24 05:51:31 51°11.1 2°42.13 -999 3.4842 31.032428 30.669623
2003-04-24 05:51:37 51°11.1 2°42.13 -999 3.483779 31.029628 30.973007
2003-04-24 05:51:41 51°11.1 2°42.14 -999 3.4842 31.036526 30.80446
2003-04-24 05:51:47 51°11.1 2°42.14 -999 3.483779 31.03236 31.074136
2003-04-24 05:51:51 51°11.11 2°42.14 -999 3.483779 31.03236 31.074136
2003-04-24 05:51:57 51°11.11 2°42.15 -999 3.483463 31.030601 30.703332
2003-04-24 05:52:01 51°11.11 2°42.15 -999 3.483463 31.032651 30.871879
2003-04-24 05:52:05 51°11.11 2°42.15 -999 3.483568 31.032326 30.871879
2003-04-24 05:52:11 51°11.11 2°42.15 -999 3.483673 31.034051 31.343811
2003-04-24 05:52:15 51°11.11 2°42.16 -999 3.483779 31.034409 32.321383
2003-04-24 05:52:21 51°11.11 2°42.16 -999 3.483779 31.034409 32.321383
2003-04-24 05:52:25 51°11.11 2°42.16 -999 3.484095 31.039584 32.48993
2003-04-24 05:52:31 51°11.11 2°42.17 -999 3.484095 31.041634 32.827024
2003-04-24 05:52:36 51°11.12 2°42.17 -999 3.483989 31.041275 32.995571
2003-04-24 05:52:42 51°11.12 2°42.17 -999 3.483884 31.040234 32.725896
2003-04-24 05:52:46 51°11.12 2°42.17 -999 3.484305 31.043034 32.119127
2003-04-24 05:52:52 51°11.12 2°42.18 -999 3.484305 31.043034 32.119127
2003-04-24 05:52:56 51°11.12 2°42.18 -999 3.483568 31.036425 31.546067
2003-04-24 05:53:02 51°11.12 2°42.18 -999 3.483779 31.037142 31.107845
2003-04-24 05:53:06 51°11.12 2°42.18 -999 3.483884 31.038184 30.669623
2003-04-24 05:53:12 51°11.12 2°42.19 -999 3.484411 31.041342 30.703332
2003-04-24 05:53:16 51°11.12 2°42.19 -999 3.483989 31.037175 30.939298